Flight Track Log - Related Links

Times and Time Zones

All times are in EDT time to prevent confusion due to time zone crossing. See the THY9 flight status page for this flight to view local times or setup timezone preferences in your user account.

Time Position Orientation Groundspeed Altitude Reporting Facility
EDT Latitude Longitude Course Direction KTS MPH feet Rate Location/Type
Wed 06:09:57 AM 41.0680 28.7910 180° South 248 285 2,400  Level FlightAware ADS-B
Wed 06:10:27 AM 41.0970 28.7670 328° Northwest 256 295 3,500 2,571 Climbing FlightAware ADS-B
Wed 06:11:07 AM 41.1370 28.7320 327° Northwest 268 308 5,400 2,954 Climbing FlightAware ADS-B
Wed 06:11:32 AM 41.1650 28.7080 327° Northwest 271 312 6,700 2,880 Climbing FlightAware ADS-B
Wed 06:11:57 AM 41.1880 28.6880 327° Northwest 272 313 7,800 2,933 Climbing FlightAware ADS-B
Wed 06:12:17 AM 41.2140 28.6660 328° Northwest 267 307 8,900 2,933 Climbing FlightAware ADS-B
Wed 06:12:42 AM 41.2390 28.6450 328° Northwest 270 311 10,000 1,754 Climbing FlightAware ADS-B
Wed 06:13:22 AM 41.2840 28.6060 327° Northwest 308 354 10,800 1,341 Climbing FlightAware ADS-B
Wed 06:14:07 AM 41.3470 28.5530 328° Northwest 352 405 11,900 1,875 Climbing FlightAware ADS-B
Wed 06:14:42 AM 41.3960 28.5100 327° Northwest 367 422 13,300 2,471 Climbing FlightAware ADS-B
Wed 06:15:32 AM 41.4690 28.4470 327° Northwest 370 426 15,400 2,400 Climbing FlightAware ADS-B
Wed 06:16:12 AM 41.5300 28.3950 327° Northwest 386 444 16,900 2,160 Climbing FlightAware ADS-B
Wed 06:16:47 AM 41.5820 28.3500 327° Northwest 387 445 18,100 2,047 Climbing FlightAware ADS-B
Wed 06:17:37 AM 41.6580 28.2840 327° Northwest 403 464 19,800 1,867 Climbing FlightAware ADS-B
Wed 06:18:17 AM 41.7180 28.2320 327° Northwest 405 466 20,900 1,835 Climbing FlightAware ADS-B
Wed 06:19:02 AM 41.7950 28.1650 327° Northwest 410 472 22,400 1,835 Climbing FlightAware ADS-B
Wed 06:19:42 AM 41.8600 28.1080 327° Northwest 426 490 23,500 1,553 Climbing FlightAware ADS-B
Wed 06:20:27 AM 41.9370 28.0410 327° Northwest 429 494 24,600 1,520 Climbing FlightAware ADS-B
Wed 06:20:57 AM 41.9870 27.9970 327° Northwest 441 507 25,400 1,425 Climbing FlightAware ADS-B
Wed 06:21:47 AM 42.0720 27.9280 329° Northwest 450 518 26,500 1,326 Climbing FlightAware ADS-B
Wed 06:22:32 AM 42.1560 27.8610 329° Northwest 458 527 27,500 1,271 Climbing FlightAware ADS-B
Wed 06:23:12 AM 42.2320 27.7990 329° Northwest 466 536 28,300 1,125 Climbing FlightAware ADS-B
Wed 06:23:52 AM 42.3050 27.7390 329° Northwest 474 545 29,000 1,129 Climbing FlightAware ADS-B
Wed 06:24:37 AM 42.3920 27.6670 329° Northwest 480 552 29,900 1,271 Climbing FlightAware ADS-B
Wed 06:25:17 AM 42.4630 27.6090 329° Northwest 479 551 30,800 1,129 Climbing FlightAware ADS-B
Wed 06:26:02 AM 42.5490 27.5380 329° Northwest 483 556 31,500 847 Climbing FlightAware ADS-B
Wed 06:26:42 AM 42.6270 27.4700 327° Northwest 487 560 32,000 353 Climbing FlightAware ADS-B
Wed 06:27:27 AM 42.7100 27.3920 325° Northwest 486 559 32,000  Level FlightAware ADS-B
Wed 06:28:07 AM 42.7810 27.3260 326° Northwest 485 558 32,000  Level FlightAware ADS-B
Wed 06:28:47 AM 42.8600 27.2540 326° Northwest 484 557 32,000  Level FlightAware ADS-B
Wed 06:29:32 AM 42.9410 27.1780 326° Northwest 484 557 32,000  Level FlightAware ADS-B
Wed 06:30:07 AM 43.0050 27.1190 326° Northwest 484 557 32,000  Level FlightAware ADS-B
Wed 06:30:57 AM 43.0930 27.0370 326° Northwest 484 557 32,000  Level FlightAware ADS-B
Wed 06:31:32 AM 43.1550 26.9800 326° Northwest 484 557 32,000  Level FlightAware ADS-B
Wed 06:32:12 AM 43.2260 26.9150 326° Northwest 483 556 32,000  Level FlightAware ADS-B
Wed 06:33:02 AM 43.3250 26.8240 326° Northwest 484 557 32,000  Level FlightAware ADS-B
Wed 06:33:42 AM 43.3950 26.7590 326° Northwest 484 557 32,000  Level FlightAware ADS-B
Wed 06:34:37 AM 43.5000 26.6620 326° Northwest 485 558 32,000  Level FlightAware ADS-B
Wed 06:35:17 AM 43.5770 26.5910 326° Northwest 484 557 32,000  Level FlightAware ADS-B
Wed 06:36:02 AM 43.6620 26.5130 326° Northwest 484 557 32,000  Level FlightAware ADS-B
Wed 06:36:47 AM 43.7410 26.4410 327° Northwest 484 557 32,000  Level FlightAware ADS-B
Wed 06:37:22 AM 43.8120 26.3760 327° Northwest 484 557 32,000  Level FlightAware ADS-B
Wed 06:38:02 AM 43.8860 26.3070 326° Northwest 485 558 32,000  Level FlightAware ADS-B
Wed 06:38:42 AM 43.9580 26.2400 326° Northwest 485 558 32,000  Level FlightAware ADS-B
Wed 06:39:27 AM 44.0390 26.1510 322° Northwest 487 560 32,000  Level FlightAware ADS-B
Wed 06:40:12 AM 44.0980 26.0780 318° Northwest 487 560 32,000  Level FlightAware ADS-B
Wed 06:40:47 AM 44.1720 25.9860 318° Northwest 485 558 32,000  Level FlightAware ADS-B
Wed 06:41:37 AM 44.2530 25.8860 319° Northwest 485 558 32,000  Level FlightAware ADS-B
Wed 06:42:22 AM 44.3260 25.7940 318° Northwest 485 558 32,000  Level FlightAware ADS-B
Wed 06:42:57 AM 44.3900 25.7140 318° Northwest 483 556 32,000  Level FlightAware ADS-B
Wed 06:43:37 AM 44.4550 25.6320 318° Northwest 482 555 32,000  Level FlightAware ADS-B
Wed 06:44:27 AM 44.5330 25.5340 318° Northwest 482 555 32,000  Level FlightAware ADS-B
Wed 06:45:07 AM 44.6040 25.4450 318° Northwest 482 555 32,000  Level FlightAware ADS-B
Wed 06:45:52 AM 44.6780 25.3510 318° Northwest 480 552 32,000  Level FlightAware ADS-B
Wed 06:46:32 AM 44.7430 25.2670 317° Northwest 480 552 32,000  Level FlightAware ADS-B
Wed 06:47:17 AM 44.8130 25.1780 318° Northwest 479 551 32,000  Level FlightAware ADS-B
Wed 06:47:57 AM 44.8860 25.0850 318° Northwest 479 551 32,000  Level FlightAware ADS-B
Wed 06:48:37 AM 44.9520 25.0010 318° Northwest 478 550 32,000  Level FlightAware ADS-B
Wed 06:49:22 AM 45.0180 24.9150 317° Northwest 477 549 32,000  Level FlightAware ADS-B
Wed 06:49:57 AM 45.0790 24.8360 318° Northwest 477 549 32,000  Level FlightAware ADS-B
Wed 06:50:47 AM 45.1540 24.7380 317° Northwest 478 550 32,000  Level FlightAware ADS-B
Wed 06:51:22 AM 45.2190 24.6540 318° Northwest 477 549 32,000  Level FlightAware ADS-B
Wed 06:52:12 AM 45.2950 24.5550 318° Northwest 474 545 32,000  Level FlightAware ADS-B
Wed 06:52:52 AM 45.3610 24.4680 317° Northwest 476 548 32,000  Level FlightAware ADS-B
Wed 06:53:32 AM 45.4270 24.3810 317° Northwest 478 550 32,000  Level FlightAware ADS-B
Wed 06:54:07 AM 45.4820 24.3080 317° Northwest 476 548 32,000  Level FlightAware ADS-B
Wed 06:54:57 AM 45.5600 24.2050 317° Northwest 474 545 32,000  Level FlightAware ADS-B
Wed 06:55:37 AM 45.6290 24.1130 317° Northwest 471 542 32,000  Level FlightAware ADS-B
Wed 06:56:22 AM 45.6980 24.0220 317° Northwest 470 541 32,000  Level FlightAware ADS-B
Wed 06:57:02 AM 45.7480 23.9550 317° Northwest 471 542 32,000  Level FlightAware ADS-B
Wed 06:57:42 AM 45.8280 23.8470 317° Northwest 472 543 32,000  Level FlightAware ADS-B
Wed 06:58:27 AM 45.8940 23.7580 317° Northwest 473 544 32,000  Level FlightAware ADS-B
Wed 06:59:07 AM 45.9580 23.6720 317° Northwest 473 544 32,000  Level FlightAware ADS-B
Wed 06:59:52 AM 46.0340 23.5680 316° Northwest 471 542 32,000  Level FlightAware ADS-B
Wed 07:00:27 AM 46.0890 23.4920 316° Northwest 469 540 32,000  Level FlightAware ADS-B
Wed 07:01:17 AM 46.1720 23.3790 317° Northwest 470 541 32,000  Level FlightAware ADS-B
Wed 07:01:47 AM 46.2210 23.3240 322° Northwest 471 542 32,000  Level FlightAware ADS-B
Wed 07:02:32 AM 46.3040 23.2580 331° Northwest 472 543 32,000  Level FlightAware ADS-B
Wed 07:03:12 AM 46.3820 23.1920 330° Northwest 473 544 32,000  Level FlightAware ADS-B
Wed 07:03:57 AM 46.4630 23.1190 328° Northwest 472 543 32,000  Level FlightAware ADS-B
Wed 07:04:37 AM 46.5390 23.0490 328° Northwest 471 542 32,000  Level FlightAware ADS-B
Wed 07:05:17 AM 46.6130 22.9820 328° Northwest 469 540 32,000  Level FlightAware ADS-B
Wed 07:06:02 AM 46.6930 22.9140 330° Northwest 467 537 32,000  Level FlightAware ADS-B
Wed 07:06:42 AM 46.7700 22.8500 330° Northwest 466 536 32,000  Level FlightAware ADS-B
Wed 07:07:17 AM 46.8360 22.7930 329° Northwest 464 534 32,000  Level FlightAware ADS-B
Wed 07:08:07 AM 46.9280 22.7140 330° Northwest 465 535 32,000  Level FlightAware ADS-B
Wed 07:08:47 AM 47.0050 22.6480 330° Northwest 463 533 32,000  Level FlightAware ADS-B
Wed 07:09:47 AM 47.1070 22.5590 329° Northwest 464 534 32,000  Level FlightAware ADS-B
Wed 07:10:22 AM 47.1750 22.5000 329° Northwest 464 534 32,000  Level FlightAware ADS-B
Wed 07:11:22 AM 47.2820 22.4070 329° Northwest 464 534 32,000  Level FlightAware ADS-B
Wed 07:12:07 AM 47.3690 22.3310 329° Northwest 464 534 32,000  Level FlightAware ADS-B
Wed 07:12:47 AM 47.4440 22.2650 329° Northwest 456 525 32,000  Level FlightAware ADS-B
Wed 07:13:32 AM 47.5270 22.1910 329° Northwest 456 525 32,000  Level FlightAware ADS-B
Wed 07:14:12 AM 47.6040 22.1350 334° Northwest 451 519 32,000  Level FlightAware ADS-B
Wed 07:14:57 AM 47.6930 22.0820 338° Northwest 457 526 32,000  Level FlightAware ADS-B
Wed 07:15:37 AM 47.7680 22.0330 336° Northwest 457 526 32,000  Level FlightAware ADS-B
Wed 07:16:17 AM 47.8440 21.9820 336° Northwest 457 526 32,000  Level FlightAware ADS-B
Wed 07:17:02 AM 47.9330 21.9230 336° Northwest 458 527 32,000  Level FlightAware ADS-B
Wed 07:17:42 AM 48.0140 21.8720 337° Northwest 458 527 32,000  Level FlightAware ADS-B
Wed 07:18:27 AM 48.1020 21.8160 337° Northwest 457 526 32,000  Level FlightAware ADS-B
Wed 07:19:07 AM 48.1820 21.7650 337° Northwest 456 525 32,000  Level FlightAware ADS-B
Wed 07:19:52 AM 48.2670 21.7110 337° Northwest 455 524 32,000  Level FlightAware ADS-B
Wed 07:20:32 AM 48.3450 21.6610 337° Northwest 455 524 32,000  Level FlightAware ADS-B
Wed 07:21:12 AM 48.4230 21.6110 337° Northwest 456 525 32,000  Level FlightAware ADS-B
Wed 07:21:57 AM 48.5120 21.5530 337° Northwest 452 520 32,000  Level FlightAware ADS-B
Wed 07:22:37 AM 48.5850 21.4940 332° Northwest 454 522 32,000  Level FlightAware ADS-B
Wed 07:23:17 AM 48.6530 21.4170 323° Northwest 454 522 32,000  Level FlightAware ADS-B
Wed 07:24:02 AM 48.7260 21.3270 321° Northwest 455 524 32,000  Level FlightAware ADS-B
Wed 07:24:42 AM 48.7900 21.2470 321° Northwest 455 524 32,000  Level FlightAware ADS-B
Wed 07:25:27 AM 48.8630 21.1580 321° Northwest 454 522 32,000  Level FlightAware ADS-B
Wed 07:26:07 AM 48.9290 21.0780 321° Northwest 457 526 32,000  Level FlightAware ADS-B
Wed 07:26:47 AM 48.9940 20.9970 321° Northwest 455 524 32,000  Level FlightAware ADS-B
Wed 07:27:32 AM 49.0660 20.9070 321° Northwest 456 525 32,000  Level FlightAware ADS-B
Wed 07:28:12 AM 49.1310 20.8260 321° Northwest 457 526 32,000  Level FlightAware ADS-B
Wed 07:28:57 AM 49.2070 20.7310 321° Northwest 456 525 32,000  Level FlightAware ADS-B
Wed 07:29:37 AM 49.2720 20.6480 320° Northwest 457 526 32,000  Level FlightAware ADS-B
Wed 07:30:17 AM 49.3380 20.5660 321° Northwest 455 524 32,000  Level FlightAware ADS-B
Wed 07:31:02 AM 49.4090 20.4760 320° Northwest 449 517 32,000  Level FlightAware ADS-B
Wed 07:31:42 AM 49.4690 20.3990 320° Northwest 446 513 32,000  Level FlightAware ADS-B
Wed 07:32:27 AM 49.5360 20.3140 321° Northwest 448 516 32,000  Level FlightAware ADS-B
Wed 07:33:07 AM 49.6070 20.2220 320° Northwest 447 514 32,000  Level FlightAware ADS-B
Wed 07:33:47 AM 49.6690 20.1420 320° Northwest 447 514 32,000  Level FlightAware ADS-B
Wed 07:34:22 AM 49.7240 20.0710 320° Northwest 445 512 32,000  Level FlightAware ADS-B
Wed 07:35:12 AM 49.8060 19.9650 320° Northwest 445 512 32,000  Level FlightAware ADS-B
Wed 07:35:57 AM 49.8750 19.8750 320° Northwest 444 511 32,000  Level FlightAware ADS-B
Wed 07:36:37 AM 49.9370 19.7930 320° Northwest 446 513 32,000  Level FlightAware ADS-B
Wed 07:37:22 AM 50.0090 19.6990 320° Northwest 445 512 32,000  Level FlightAware ADS-B
Wed 07:38:02 AM 50.0730 19.6150 320° Northwest 444 511 32,000  Level FlightAware ADS-B
Wed 07:38:42 AM 50.1350 19.5330 320° Northwest 445 512 32,000  Level FlightAware ADS-B
Wed 07:39:27 AM 50.2040 19.4410 320° Northwest 444 511 32,000  Level FlightAware ADS-B
Wed 07:40:07 AM 50.2670 19.3580 320° Northwest 443 510 32,000  Level FlightAware ADS-B
Wed 07:40:47 AM 50.3290 19.2740 319° Northwest 443 510 32,000  Level FlightAware ADS-B
Wed 07:41:32 AM 50.3990 19.1800 319° Northwest 443 510 32,000  Level FlightAware ADS-B
Wed 07:42:12 AM 50.4620 19.0950 319° Northwest 443 510 32,000  Level FlightAware ADS-B
Wed 07:42:57 AM 50.5300 19.0040 320° Northwest 443 510 32,000  Level FlightAware ADS-B
Wed 07:43:37 AM 50.5920 18.9200 319° Northwest 444 511 32,000  Level FlightAware ADS-B
Wed 07:44:17 AM 50.6530 18.8360 319° Northwest 444 511 32,000  Level FlightAware ADS-B
Wed 07:45:02 AM 50.7230 18.7410 319° Northwest 442 509 32,000  Level FlightAware ADS-B
Wed 07:45:42 AM 50.7850 18.6550 319° Northwest 441 507 32,000  Level FlightAware ADS-B
Wed 07:46:27 AM 50.8560 18.5590 320° Northwest 442 509 32,000  Level FlightAware ADS-B
Wed 07:47:07 AM 50.9180 18.4750 320° Northwest 441 507 32,000  Level FlightAware ADS-B
Wed 07:47:47 AM 50.9810 18.3910 320° Northwest 440 506 32,000  Level FlightAware ADS-B
Wed 07:48:32 AM 51.0480 18.2990 319° Northwest 441 507 32,000  Level FlightAware ADS-B
Wed 07:49:12 AM 51.1100 18.2150 320° Northwest 443 510 32,000  Level FlightAware ADS-B
Wed 07:49:57 AM 51.1810 18.1170 319° Northwest 443 510 32,000  Level FlightAware ADS-B
Wed 07:50:37 AM 51.2430 18.0330 320° Northwest 443 510 32,000  Level FlightAware ADS-B
Wed 07:51:17 AM 51.3050 17.9470 319° Northwest 443 510 32,000  Level FlightAware ADS-B
Wed 07:52:02 AM 51.3720 17.8530 319° Northwest 442 509 32,000  Level FlightAware ADS-B
Wed 07:52:42 AM 51.4340 17.7670 319° Northwest 444 511 32,000  Level FlightAware ADS-B
Wed 07:53:27 AM 51.5040 17.6700 319° Northwest 445 512 32,000  Level FlightAware ADS-B
Wed 07:54:07 AM 51.5680 17.5810 319° Northwest 444 511 32,000  Level FlightAware ADS-B
Wed 07:54:47 AM 51.6300 17.4930 319° Northwest 444 511 32,000  Level FlightAware ADS-B
Wed 07:55:32 AM 51.6970 17.3980 319° Northwest 443 510 32,000  Level FlightAware ADS-B
Wed 07:56:12 AM 51.7540 17.3180 319° Northwest 444 511 32,000  Level FlightAware ADS-B
Wed 07:57:02 AM 51.8360 17.2000 318° Northwest 449 517 32,000  Level FlightAware ADS-B
Wed 07:57:42 AM 51.8990 17.1110 319° Northwest 449 517 32,000  Level FlightAware ADS-B
Wed 07:58:27 AM 51.9640 17.0170 318° Northwest 450 518 32,000  Level FlightAware ADS-B
Wed 07:59:07 AM 52.0320 16.9190 318° Northwest 449 517 32,000  Level FlightAware ADS-B
Wed 07:59:52 AM 52.0980 16.8230 318° Northwest 449 517 32,000  Level FlightAware ADS-B
Wed 08:00:32 AM 52.1590 16.7350 319° Northwest 448 516 32,000  Level FlightAware ADS-B
Wed 08:01:12 AM 52.2210 16.6440 318° Northwest 447 514 32,000  Level FlightAware ADS-B
Wed 08:02:12 AM 52.3140 16.5070 318° Northwest 436 502 32,000  Level FlightAware ADS-B
Wed 08:02:42 AM 52.3580 16.4420 318° Northwest 440 506 32,000  Level FlightAware ADS-B
Wed 08:03:32 AM 52.4300 16.3360 318° Northwest 438 504 32,000  Level FlightAware ADS-B
Wed 08:04:17 AM 52.5030 16.2270 318° Northwest 433 498 32,000  Level FlightAware ADS-B
Wed 08:04:57 AM 52.5610 16.1400 318° Northwest 433 498 32,000  Level FlightAware ADS-B
Wed 08:05:37 AM 52.6210 16.0500 318° Northwest 434 499 32,000  Level FlightAware ADS-B
Wed 08:06:22 AM 52.6880 15.9510 318° Northwest 435 501 32,000  Level FlightAware ADS-B
Wed 08:07:02 AM 52.7470 15.8600 317° Northwest 437 503 32,000  Level FlightAware ADS-B
Wed 08:07:42 AM 52.8070 15.7700 318° Northwest 438 504 32,000  Level FlightAware ADS-B
Wed 08:08:27 AM 52.8740 15.6670 317° Northwest 438 504 32,000  Level FlightAware ADS-B
Wed 08:09:07 AM 52.9260 15.5890 318° Northwest 438 504 32,000  Level FlightAware ADS-B
Wed 08:09:52 AM 52.9990 15.4760 317° Northwest 436 502 32,000  Level FlightAware ADS-B
Wed 08:10:27 AM 53.0460 15.4040 317° Northwest 435 501 32,000  Level FlightAware ADS-B
Wed 08:11:17 AM 53.1250 15.2820 317° Northwest 434 499 32,000  Level FlightAware ADS-B
Wed 08:12:02 AM 53.1920 15.1770 317° Northwest 434 499 32,000  Level FlightAware ADS-B
Wed 08:12:42 AM 53.2480 15.0910 317° Northwest 435 501 32,000  Level FlightAware ADS-B
Wed 08:13:22 AM 53.3060 15.0000 317° Northwest 434 499 32,000  Level FlightAware ADS-B
Wed 08:14:07 AM 53.3740 14.8920 317° Northwest 435 501 32,000  Level FlightAware ADS-B
Wed 08:14:47 AM 53.4320 14.8000 317° Northwest 433 498 32,000  Level FlightAware ADS-B
Wed 08:15:32 AM 53.4960 14.6980 317° Northwest 432 497 32,000  Level FlightAware ADS-B
Wed 08:16:12 AM 53.5530 14.6080 317° Northwest 432 497 32,000  Level FlightAware ADS-B
Wed 08:16:52 AM 53.6110 14.5140 316° Northwest 431 496 32,000  Level FlightAware ADS-B
Wed 08:17:37 AM 53.6750 14.4130 317° Northwest 430 495 32,000  Level FlightAware ADS-B
Wed 08:18:17 AM 53.7310 14.3210 316° Northwest 431 496 32,000  Level FlightAware ADS-B
Wed 08:18:57 AM 53.7930 14.2320 320° Northwest 432 497 32,000  Level FlightAware ADS-B
Wed 08:19:42 AM 53.8640 14.1400 323° Northwest 433 498 32,000  Level FlightAware ADS-B
Wed 08:20:22 AM 53.9280 14.0580 323° Northwest 433 498 32,000  Level FlightAware ADS-B
Wed 08:21:02 AM 53.9920 13.9740 322° Northwest 433 498 32,000  Level FlightAware ADS-B
Wed 08:21:47 AM 54.0630 13.8800 322° Northwest 433 498 32,000  Level FlightAware ADS-B
Wed 08:22:27 AM 54.1270 13.7960 322° Northwest 431 496 32,000  Level FlightAware ADS-B
Wed 08:23:12 AM 54.2000 13.7000 322° Northwest 431 496 32,000  Level FlightAware ADS-B
Wed 08:23:52 AM 54.2610 13.6190 322° Northwest 431 496 32,000  Level FlightAware ADS-B
Wed 08:24:32 AM 54.3240 13.5360 322° Northwest 431 496 32,000  Level FlightAware ADS-B
Wed 08:25:17 AM 54.3980 13.4470 325° Northwest 432 497 32,000  Level FlightAware ADS-B
Wed 08:25:57 AM 54.4640 13.3690 326° Northwest 431 496 32,000  Level FlightAware ADS-B
Wed 08:26:37 AM 54.5310 13.2910 326° Northwest 431 496 32,000  Level FlightAware ADS-B
Wed 08:27:22 AM 54.6070 13.2040 326° Northwest 433 498 32,000  Level FlightAware ADS-B
Wed 08:28:02 AM 54.6740 13.1320 328° Northwest 434 499 32,000  Level FlightAware ADS-B
Wed 08:28:47 AM 54.7490 13.0510 328° Northwest 433 498 32,000  Level FlightAware ADS-B
Wed 08:29:27 AM 54.8170 12.9750 327° Northwest 433 498 32,000  Level FlightAware ADS-B
Wed 08:30:12 AM 54.8920 12.8920 328° Northwest 431 496 32,000  Level FlightAware ADS-B
Wed 08:30:52 AM 54.9600 12.8160 327° Northwest 431 496 32,000  Level FlightAware ADS-B
Wed 08:31:22 AM 55.0110 12.7630 329° Northwest 433 498 32,000  Level FlightAware ADS-B
Wed 08:32:02 AM 55.0820 12.6930 331° Northwest 433 498 32,000  Level FlightAware ADS-B
Wed 08:32:42 AM 55.1520 12.6270 332° Northwest 434 499 32,000  Level FlightAware ADS-B
Wed 08:33:27 AM 55.2270 12.5560 332° Northwest 435 501 32,000  Level FlightAware ADS-B
Wed 08:34:07 AM 55.3000 12.4860 331° Northwest 438 504 32,000  Level FlightAware ADS-B
Wed 08:34:47 AM 55.3650 12.4230 331° Northwest 436 502 32,000  Level FlightAware ADS-B
Wed 08:35:32 AM 55.4450 12.3460 331° Northwest 435 501 32,000  Level FlightAware ADS-B
Wed 08:36:12 AM 55.5190 12.2740 331° Northwest 436 502 32,000  Level FlightAware ADS-B
Wed 08:36:57 AM 55.5980 12.1970 331° Northwest 435 501 32,000  Level FlightAware ADS-B
Wed 08:37:42 AM 55.6750 12.1210 331° Northwest 435 501 32,000  Level FlightAware ADS-B
Wed 08:38:22 AM 55.7490 12.0490 331° Northwest 435 501 32,000  Level FlightAware ADS-B
Wed 08:39:02 AM 55.8220 11.9760 331° Northwest 435 501 32,000  Level FlightAware ADS-B
Wed 08:39:42 AM 55.8920 11.9070 331° Northwest 435 501 32,000  Level FlightAware ADS-B
Wed 08:40:27 AM 55.9690 11.8300 331° Northwest 433 498 32,000  Level FlightAware ADS-B
Wed 08:41:07 AM 56.0370 11.7610 330° Northwest 433 498 32,000 71 Level FlightAware ADS-B
Wed 08:41:52 AM 56.1170 11.6880 333° Northwest 434 499 32,100  Climbing FlightAware ADS-B
Wed 08:42:32 AM 56.1860 11.6110 328° Northwest 427 491 32,000 -71 Descending FlightAware ADS-B
Wed 08:43:17 AM 56.2660 11.5300 331° Northwest 436 502 32,000 71 Level FlightAware ADS-B
Wed 08:43:57 AM 56.3330 11.4650 332° Northwest 430 495 32,100  Climbing FlightAware ADS-B
Wed 08:44:37 AM 56.4030 11.3940 331° Northwest 434 499 32,000 -71 Descending FlightAware ADS-B
Wed 08:45:22 AM 56.4800 11.3120 330° Northwest 429 494 32,000  Level FlightAware ADS-B
Wed 08:46:02 AM 56.5510 11.2360 329° Northwest 431 496 32,000  Level FlightAware ADS-B
Wed 08:46:47 AM 56.6270 11.1560 330° Northwest 430 495 32,000  Level FlightAware ADS-B
Wed 08:47:27 AM 56.6960 11.0850 331° Northwest 429 494 32,000  Level FlightAware ADS-B
Wed 08:48:07 AM 56.7660 11.0120 330° Northwest 429 494 32,000  Level FlightAware ADS-B
Wed 08:48:52 AM 56.8410 10.9330 330° Northwest 428 493 32,000  Level FlightAware ADS-B
Wed 08:49:32 AM 56.9090 10.8600 330° Northwest 428 493 32,000  Level FlightAware ADS-B
Wed 08:50:17 AM 56.9880 10.7760 330° Northwest 429 494 32,000  Level FlightAware ADS-B
Wed 08:50:57 AM 57.0570 10.7030 330° Northwest 429 494 32,000  Level FlightAware ADS-B
Wed 08:51:37 AM 57.1240 10.6310 330° Northwest 428 493 32,000  Level FlightAware ADS-B
Wed 08:52:22 AM 57.2000 10.5500 330° Northwest 427 491 32,000  Level FlightAware ADS-B
Wed 08:53:02 AM 57.2680 10.4760 330° Northwest 424 488 32,000  Level FlightAware ADS-B
Wed 08:53:47 AM 57.3450 10.3910 329° Northwest 424 488 32,000  Level FlightAware ADS-B
Wed 08:54:27 AM 57.4130 10.3180 330° Northwest 422 486 32,000  Level FlightAware ADS-B
Wed 08:55:07 AM 57.4790 10.2450 329° Northwest 422 486 32,000  Level FlightAware ADS-B
Wed 08:55:52 AM 57.5530 10.1630 329° Northwest 421 484 32,000  Level FlightAware ADS-B
Wed 08:56:32 AM 57.6190 10.0900 329° Northwest 421 484 32,000  Level FlightAware ADS-B
Wed 08:57:12 AM 57.6870 10.0150 329° Northwest 421 484 32,000  Level FlightAware ADS-B
Wed 08:57:57 AM 57.7640 9.9290 329° Northwest 420 483 32,000  Level FlightAware ADS-B
Wed 08:58:37 AM 57.8300 9.8540 329° Northwest 418 481 32,000  Level FlightAware ADS-B
Wed 08:59:22 AM 57.9030 9.7720 329° Northwest 417 480 32,000  Level FlightAware ADS-B
Wed 09:00:02 AM 57.9710 9.6950 329° Northwest 416 479 32,000  Level FlightAware ADS-B
Wed 09:00:42 AM 58.0340 9.6230 329° Northwest 416 479 32,000  Level FlightAware ADS-B
Wed 09:01:27 AM 58.1090 9.5360 329° Northwest 417 480 32,000  Level FlightAware ADS-B
Wed 09:02:12 AM 58.1820 9.4530 329° Northwest 418 481 32,000  Level FlightAware ADS-B
Wed 09:02:52 AM 58.2500 9.3740 329° Northwest 418 481 32,000  Level FlightAware ADS-B
Wed 09:03:32 AM 58.3120 9.3020 329° Northwest 419 482 32,000  Level FlightAware ADS-B
Wed 09:04:17 AM 58.3890 9.2120 329° Northwest 421 484 32,000  Level FlightAware ADS-B
Wed 09:04:57 AM 58.4570 9.1330 329° Northwest 422 486 32,000  Level FlightAware ADS-B
Wed 09:05:37 AM 58.5220 9.0570 329° Northwest 422 486 32,000  Level FlightAware ADS-B
Wed 09:06:22 AM 58.5920 8.9740 328° Northwest 426 490 32,000  Level FlightAware ADS-B
Wed 09:07:02 AM 58.6620 8.8910 328° Northwest 427 491 32,000  Level FlightAware ADS-B
Wed 09:07:42 AM 58.7320 8.8070 328° Northwest 428 493 32,000  Level FlightAware ADS-B
Wed 09:08:27 AM 58.8060 8.7190 328° Northwest 428 493 32,000  Level FlightAware ADS-B
Wed 09:09:07 AM 58.8730 8.6370 328° Northwest 429 494 32,000  Level FlightAware ADS-B
Wed 09:09:52 AM 58.9500 8.5440 328° Northwest 428 493 32,000  Level FlightAware ADS-B
Wed 09:10:32 AM 59.0150 8.4650 328° Northwest 430 495 32,000  Level FlightAware ADS-B
Wed 09:11:17 AM 59.0870 8.3770 328° Northwest 427 491 32,000  Level FlightAware ADS-B
Wed 09:11:52 AM 59.1490 8.3000 328° Northwest 428 493 32,000  Level FlightAware ADS-B
Wed 09:12:37 AM 59.2200 8.2130 328° Northwest 428 493 32,000  Level FlightAware ADS-B
Wed 09:13:22 AM 59.3000 8.1140 328° Northwest 428 493 32,000  Level FlightAware ADS-B
Wed 09:14:02 AM 59.3670 8.0300 327° Northwest 429 494 32,000  Level FlightAware ADS-B
Wed 09:14:47 AM 59.4410 7.9380 328° Northwest 427 491 32,000  Level FlightAware ADS-B
Wed 09:15:27 AM 59.5080 7.8530 327° Northwest 423 487 32,000  Level FlightAware ADS-B
Wed 09:16:07 AM 59.5730 7.7710 327° Northwest 418 481 32,000  Level FlightAware ADS-B
Wed 09:16:52 AM 59.6500 7.6850 331° Northwest 429 494 32,000  Level FlightAware ADS-B
Wed 09:17:32 AM 59.7220 7.6160 334° Northwest 426 490 32,000  Level FlightAware ADS-B
Wed 09:18:17 AM 59.7990 7.5410 334° Northwest 422 486 32,000  Level FlightAware ADS-B
Wed 09:18:57 AM 59.8700 7.4740 335° Northwest 421 484 32,000  Level FlightAware ADS-B
Wed 09:19:42 AM 59.9500 7.3960 334° Northwest 419 482 32,000  Level FlightAware ADS-B
Wed 09:20:22 AM 60.0190 7.3300 334° Northwest 421 484 32,000  Level FlightAware ADS-B
Wed 09:21:02 AM 60.0890 7.2620 334° Northwest 419 482 32,000  Level FlightAware ADS-B
Wed 09:21:47 AM 60.1630 7.1900 334° Northwest 416 479 32,000 80 Level FlightAware ADS-B
Wed 09:22:17 AM 60.2140 7.1400 334° Northwest 416 479 32,100 525 Climbing FlightAware ADS-B
Wed 09:23:07 AM 60.3000 7.0540 334° Northwest 426 490 32,700 758 Climbing FlightAware ADS-B
Wed 09:23:52 AM 60.3800 6.9750 334° Northwest 432 497 33,300 776 Climbing FlightAware ADS-B
Wed 09:24:32 AM 60.4510 6.9050 334° Northwest 430 495 33,800 494 Climbing FlightAware ADS-B
Wed 09:25:17 AM 60.5340 6.8220 334° Northwest 435 501 34,000 141 Climbing FlightAware ADS-B
Wed 09:25:57 AM 60.6070 6.7480 334° Northwest 446 513 34,000  Level FlightAware ADS-B
Wed 09:26:42 AM 60.6900 6.6640 334° Northwest 448 516 34,000  Level FlightAware ADS-B
Wed 09:27:22 AM 60.7610 6.5920 334° Northwest 437 503 34,000  Level FlightAware ADS-B
Wed 09:28:02 AM 60.8370 6.5140 333° Northwest 446 513 34,000  Level FlightAware ADS-B
Wed 09:28:47 AM 60.9210 6.4280 334° Northwest 448 516 34,000  Level FlightAware ADS-B
Wed 09:29:27 AM 60.9900 6.3570 333° Northwest 449 517 34,000  Level FlightAware ADS-B
Wed 09:30:07 AM 61.0680 6.2750 333° Northwest 452 520 34,000  Level FlightAware ADS-B
Wed 09:30:52 AM 61.1520 6.1870 333° Northwest 450 518 34,000  Level FlightAware ADS-B
Wed 09:31:32 AM 61.2260 6.1090 333° Northwest 438 504 34,000  Level FlightAware ADS-B
Wed 09:32:17 AM 61.3100 6.0200 333° Northwest 438 504 34,000  Level FlightAware ADS-B
Wed 09:32:57 AM 61.3810 5.9450 333° Northwest 439 505 34,000  Level FlightAware ADS-B
Wed 09:33:37 AM 61.4540 5.8680 333° Northwest 450 518 34,000  Level FlightAware ADS-B
Wed 09:34:22 AM 61.5400 5.7740 332° Northwest 456 525 34,000  Level FlightAware ADS-B
Wed 09:35:02 AM 61.6150 5.6940 333° Northwest 450 518 34,000  Level FlightAware ADS-B
Wed 09:35:47 AM 61.6990 5.6020 333° Northwest 453 521 34,000  Level FlightAware ADS-B
Wed 09:36:27 AM 61.7720 5.5220 333° Northwest 454 522 34,000  Level FlightAware ADS-B
Wed 09:37:12 AM 61.8600 5.4250 333° Northwest 455 524 34,000  Level FlightAware ADS-B
Wed 09:37:52 AM 61.9370 5.3400 333° Northwest 453 521 34,000  Level FlightAware ADS-B
Wed 09:38:32 AM 62.0120 5.2570 333° Northwest 455 524 34,000  Level FlightAware ADS-B
Wed 09:39:17 AM 62.0980 5.1600 332° Northwest 458 527 34,000  Level FlightAware ADS-B
Wed 09:39:57 AM 62.1710 5.0780 332° Northwest 457 526 34,000  Level FlightAware ADS-B
Wed 09:40:37 AM 62.2490 4.9900 332° Northwest 455 524 34,000  Level FlightAware ADS-B
Wed 09:41:22 AM 62.3330 4.8940 332° Northwest 456 525 34,000  Level FlightAware ADS-B
Wed 09:42:02 AM 62.4080 4.8070 332° Northwest 456 525 34,000  Level FlightAware ADS-B
Wed 09:42:47 AM 62.4950 4.7070 332° Northwest 458 527 34,000  Level FlightAware ADS-B
Wed 09:43:27 AM 62.5690 4.6210 332° Northwest 457 526 34,000  Level FlightAware ADS-B
Wed 09:44:07 AM 62.6410 4.5370 332° Northwest 456 525 34,000  Level FlightAware ADS-B
Wed 09:45:02 AM 62.7440 4.4160 332° Northwest 456 525 34,000  Level FlightAware ADS-B
Wed 09:46:02 AM 62.8560 4.2820 331° Northwest 461 531 34,000  Level FlightAware ADS-B
Wed 09:46:42 AM 62.9350 4.1880 332° Northwest 461 531 34,000  Level FlightAware ADS-B
Wed 09:47:27 AM 63.0180 4.0890 332° Northwest 461 531 34,000  Level FlightAware ADS-B
Wed 09:48:22 AM 63.1190 3.9660 331° Northwest 462 532 34,000  Level FlightAware ADS-B
Wed 09:48:57 AM 63.1860 3.8840 331° Northwest 461 531 34,000  Level FlightAware ADS-B
Wed 09:49:47 AM 63.2720 3.7790 331° Northwest 459 528 34,000  Level FlightAware ADS-B
Wed 09:50:27 AM 63.3460 3.6870 331° Northwest 458 527 34,000  Level FlightAware ADS-B
Wed 09:51:07 AM 63.4250 3.5890 331° Northwest 459 528 34,000  Level FlightAware ADS-B
Wed 09:51:42 AM 63.4800 3.5200 331° Northwest 458 527 34,000  Level FlightAware ADS-B
Wed 09:52:42 AM 63.5930 3.3770 331° Northwest 461 531 34,000  Level FlightAware ADS-B
Wed 09:53:27 AM 63.6660 3.2830 330° Northwest 461 531 34,000  Level FlightAware ADS-B
Wed 09:54:17 AM 63.7620 3.1620 331° Northwest 463 533 34,000  Level FlightAware ADS-B
Wed 09:55:07 AM 63.8410 3.0590 330° Northwest 463 533 34,000  Level FlightAware ADS-B
Wed 09:55:47 AM 63.9040 2.9760 330° Northwest 463 533 34,000  Level FlightAware ADS-B
Wed 09:56:27 AM 63.9670 2.8930 330° Northwest 463 533 34,000  Level FlightAware ADS-B
Wed 09:57:07 AM 64.0300 2.8100 330° Northwest 463 533 34,000  Level FlightAware ADS-B
Wed 09:57:47 AM 64.0930 2.7270 330° Northwest 463 533 34,000  Level FlightAware ADS-B
Wed 09:58:37 AM 64.1720 2.6230 330° Northwest 463 533 34,000  Level FlightAware ADS-B
Wed 09:59:17 AM 64.2350 2.5390 330° Northwest 463 533 34,000  Level FlightAware ADS-B
Wed 09:59:57 AM 64.2980 2.4550 330° Northwest 463 533 34,000  Level FlightAware ADS-B
Wed 10:00:37 AM 64.3610 2.3710 330° Northwest 463 533 34,000  Level FlightAware ADS-B
Wed 10:01:27 AM 64.4400 2.2660 330° Northwest 463 533 34,000  Level FlightAware ADS-B
Wed 10:02:07 AM 64.5030 2.1810 330° Northwest 463 533 34,000  Level FlightAware ADS-B
Wed 10:02:47 AM 64.5660 2.0960 330° Northwest 463 533 34,000  Level FlightAware ADS-B
Wed 10:03:27 AM 64.6290 2.0110 330° Northwest 463 533 34,000 Level FlightAware ADS-B
Wed 10:06:00 AM 64.8400 1.4341 311° West  Level Estimated
Wed 10:07:00 AM 64.9221 1.2055 310° West  Level Estimated
Wed 10:08:00 AM 65.0039 0.9754 310° West  Level Estimated
Wed 10:09:00 AM 65.0853 0.7439 310° West  Level Estimated
Wed 10:10:00 AM 65.1664 0.5110 310° West  Level Estimated
Wed 10:11:00 AM 65.2471 0.2766 309° West  Level Estimated
Wed 10:12:00 AM 65.3274 0.0409 309° West  Level Estimated
Wed 10:13:00 AM 65.4074 -0.1963 309° West  Level Estimated
Wed 10:14:00 AM 65.4870 -0.4350 309° West  Level Estimated
Wed 10:15:00 AM 65.5662 -0.6751 309° West  Level Estimated
Wed 10:16:00 AM 65.6450 -0.9167 308° West  Level Estimated
Wed 10:17:00 AM 65.7234 -1.1598 308° West  Level Estimated
Wed 10:18:00 AM 65.8015 -1.4043 308° West  Level Estimated
Wed 10:19:00 AM 65.8792 -1.6503 308° West  Level Estimated
Wed 10:20:00 AM 65.9564 -1.8978 308° West  Level Estimated
Wed 10:21:00 AM 66.0333 -2.1468 307° West  Level Estimated
Wed 10:22:00 AM 66.1098 -2.3973 307° West  Level Estimated
Wed 10:23:00 AM 66.1858 -2.6493 307° West  Level Estimated
Wed 10:24:00 AM 66.2615 -2.9028 307° West  Level Estimated
Wed 10:25:00 AM 66.3367 -3.1579 306° West  Level Estimated
Wed 10:26:00 AM 66.4115 -3.4144 306° West  Level Estimated
Wed 10:27:00 AM 66.4859 -3.6725 306° West  Level Estimated
Wed 10:28:00 AM 66.5598 -3.9322 306° West  Level Estimated
Wed 10:29:00 AM 66.6334 -4.1934 305° West  Level Estimated
Wed 10:30:00 AM 66.7065 -4.4561 305° West  Level Estimated
Wed 10:31:00 AM 66.7791 -4.7204 305° West  Level Estimated
Wed 10:32:00 AM 66.8513 -4.9863 305° West  Level Estimated
Wed 10:33:00 AM 66.9230 -5.2537 304° West  Level Estimated
Wed 10:34:00 AM 66.9943 -5.5227 304° West  Level Estimated
Wed 10:35:00 AM 67.0652 -5.7933 304° West  Level Estimated
Wed 10:36:00 AM 67.1356 -6.0655 304° West  Level Estimated
Wed 10:37:00 AM 67.2055 -6.3392 303° West  Level Estimated
Wed 10:38:00 AM 67.2749 -6.6146 303° West  Level Estimated
Wed 10:39:00 AM 67.3439 -6.8915 303° West  Level Estimated
Wed 10:40:00 AM 67.4124 -7.1700 303° West  Level Estimated
Wed 10:41:00 AM 67.4804 -7.4502 302° West  Level Estimated
Wed 10:42:00 AM 67.5479 -7.7319 302° West  Level Estimated
Wed 10:43:00 AM 67.6150 -8.0152 302° West  Level Estimated
Wed 10:44:00 AM 67.6815 -8.3002 302° West  Level Estimated
Wed 10:45:00 AM 67.7475 -8.5867 301° West  Level Estimated
Wed 10:46:00 AM 67.8131 -8.8749 301° West  Level Estimated
Wed 10:47:00 AM 67.8781 -9.1647 301° West  Level Estimated
Wed 10:48:00 AM 67.9426 -9.4561 301° West  Level Estimated
Wed 10:49:00 AM 68.0066 -9.7491 300° West  Level Estimated
Wed 10:50:00 AM 68.0701 -10.0437 300° West  Level Estimated
Wed 10:51:00 AM 68.1330 -10.3400 300° West  Level Estimated
Wed 10:52:00 AM 68.1954 -10.6378 300° West  Level Estimated
Wed 10:53:00 AM 68.2573 -10.9373 299° West  Level Estimated
Wed 10:54:00 AM 68.3186 -11.2384 299° West  Level Estimated
Wed 10:55:00 AM 68.3794 -11.5412 299° West  Level Estimated
Wed 10:56:00 AM 68.4396 -11.8455 298° West  Level Estimated
Wed 10:57:00 AM 68.4993 -12.1515 298° West  Level Estimated
Wed 10:58:00 AM 68.5584 -12.4590 298° West  Level Estimated
Wed 10:59:00 AM 68.6169 -12.7682 298° West  Level Estimated
Wed 11:00:00 AM 68.6749 -13.0790 297° West  Level Estimated
Wed 11:01:00 AM 68.7323 -13.3914 297° West  Level Estimated
Wed 11:02:00 AM 68.7892 -13.7054 297° West  Level Estimated
Wed 11:03:00 AM 68.8454 -14.0210 296° West  Level Estimated
Wed 11:04:00 AM 68.9011 -14.3383 296° West  Level Estimated
Wed 11:05:00 AM 68.9561 -14.6571 296° West  Level Estimated
Wed 11:06:00 AM 69.0106 -14.9774 296° West  Level Estimated
Wed 11:07:00 AM 69.0645 -15.2994 295° West  Level Estimated
Wed 11:08:00 AM 69.1177 -15.6230 295° West  Level Estimated
Wed 11:09:00 AM 69.1703 -15.9481 295° West  Level Estimated
Wed 11:10:00 AM 69.2224 -16.2748 294° West  Level Estimated
Wed 11:11:00 AM 69.2738 -16.6030 294° West  Level Estimated
Wed 11:12:00 AM 69.3246 -16.9328 294° West  Level Estimated
Wed 11:13:00 AM 69.3747 -17.2641 293° West  Level Estimated
Wed 11:14:00 AM 69.4242 -17.5970 293° West  Level Estimated
Wed 11:15:00 AM 69.4731 -17.9314 293° West  Level Estimated
Wed 11:16:00 AM 69.5214 -18.2673 292° West  Level Estimated
Wed 11:17:00 AM 69.5689 -18.6047 292° West  Level Estimated
Wed 11:18:00 AM 69.6159 -18.9436 292° West  Level Estimated
Wed 11:19:00 AM 69.6622 -19.2841 292° West  Level Estimated
Wed 11:20:00 AM 69.7078 -19.6259 291° West  Level Estimated
Wed 11:21:00 AM 69.7527 -19.9693 291° West  Level Estimated
Wed 11:22:00 AM 69.7970 -20.3141 291° West  Level Estimated
Wed 11:23:00 AM 69.8406 -20.6603 290° West  Level Estimated
Wed 11:24:00 AM 69.8835 -21.0080 290° West  Level Estimated
Wed 11:25:00 AM 69.9258 -21.3571 290° West  Level Estimated
Wed 11:26:00 AM 69.9673 -21.7076 289° West  Level Estimated
Wed 11:27:00 AM 70.0082 -22.0594 289° West  Level Estimated
Wed 11:28:00 AM 70.0483 -22.4127 289° West  Level Estimated
Wed 11:29:00 AM 70.0878 -22.7673 288° West  Level Estimated
Wed 11:30:00 AM 70.1265 -23.1232 288° West  Level Estimated
Wed 11:31:00 AM 70.1646 -23.4804 288° West  Level Estimated
Wed 11:32:00 AM 70.2019 -23.8390 287° West  Level Estimated
Wed 11:33:00 AM 70.2385 -24.1988 287° West  Level Estimated
Wed 11:34:00 AM 70.2744 -24.5599 287° West  Level Estimated
Wed 11:35:00 AM 70.3096 -24.9223 286° West  Level Estimated
Wed 11:36:00 AM 70.3440 -25.2859 286° West  Level Estimated
Wed 11:37:00 AM 70.3777 -25.6507 286° West  Level Estimated
Wed 11:38:00 AM 70.4107 -26.0167 285° West  Level Estimated
Wed 11:39:00 AM 70.4429 -26.3839 285° West  Level Estimated
Wed 11:40:00 AM 70.4744 -26.7522 285° West  Level Estimated
Wed 11:41:00 AM 70.5051 -27.1217 284° West  Level Estimated
Wed 11:42:00 AM 70.5351 -27.4922 284° West  Level Estimated
Wed 11:43:00 AM 70.5643 -27.8639 283° West  Level Estimated
Wed 11:44:00 AM 70.5928 -28.2366 283° West  Level Estimated
Wed 11:45:00 AM 70.6205 -28.6103 283° West  Level Estimated
Wed 11:46:00 AM 70.6474 -28.9851 282° West  Level Estimated
Wed 11:47:00 AM 70.6736 -29.3609 282° West  Level Estimated
Wed 11:48:00 AM 70.6990 -29.7376 282° West  Level Estimated
Wed 11:49:00 AM 70.7236 -30.1152 281° West  Level Estimated
Wed 11:50:00 AM 70.7475 -30.4938 281° West  Level Estimated
Wed 11:51:00 AM 70.7705 -30.8733 281° West  Level Estimated
Wed 11:52:00 AM 70.7928 -31.2536 280° West  Level Estimated
Wed 11:53:00 AM 70.8143 -31.6348 280° West  Level Estimated
Wed 11:54:00 AM 70.8350 -32.0167 280° West  Level Estimated
Wed 11:55:00 AM 70.8549 -32.3995 279° West  Level Estimated
Wed 11:56:00 AM 70.8741 -32.7830 279° West  Level Estimated
Wed 11:57:00 AM 70.8924 -33.1672 278° West  Level Estimated
Wed 11:58:00 AM 70.9099 -33.5521 278° West  Level Estimated
Wed 11:59:00 AM 70.9267 -33.9377 278° West  Level Estimated
Wed 12:00:00 PM 70.9426 -34.3239 277° West  Level Estimated
Wed 12:01:00 PM 70.9577 -34.7107 277° West  Level Estimated
Wed 12:02:00 PM 70.9720 -35.0981 277° West  Level Estimated
Wed 12:03:00 PM 70.9855 -35.4861 276° West  Level Estimated
Wed 12:04:00 PM 70.9982 -35.8745 276° West  Level Estimated
Wed 12:05:00 PM 71.0101 -36.2635 276° West  Level Estimated
Wed 12:06:00 PM 71.0212 -36.6529 275° West  Level Estimated
Wed 12:07:00 PM 71.0314 -37.0427 275° West  Level Estimated
Wed 12:08:00 PM 71.0409 -37.4329 274° West  Level Estimated
Wed 12:09:00 PM 71.0495 -37.8235 274° West  Level Estimated
Wed 12:10:00 PM 71.0573 -38.2144 274° West  Level Estimated
Wed 12:11:00 PM 71.0643 -38.6056 273° West  Level Estimated
Wed 12:12:00 PM 71.0704 -38.9970 273° West  Level Estimated
Wed 12:13:00 PM 71.0758 -39.3887 273° West  Level Estimated
Wed 12:14:00 PM 71.0803 -39.7806 272° West  Level Estimated
Wed 12:15:00 PM 71.0840 -40.1726 272° West  Level Estimated
Wed 12:16:00 PM 71.0869 -40.5648 271° West  Level Estimated
Wed 12:17:00 PM 71.0889 -40.9571 271° West  Level Estimated
Wed 12:18:00 PM 71.0901 -41.3494 271° West  Level Estimated
Wed 12:19:00 PM 71.0906 -41.7418 270° West  Level Estimated
Wed 12:20:00 PM 71.0901 -42.1342 270° West  Level Estimated
Wed 12:21:00 PM 71.0889 -42.5265 270° West  Level Estimated
Wed 12:22:00 PM 71.0868 -42.9188 269° West  Level Estimated
Wed 12:23:00 PM 71.0839 -43.3109 269° West  Level Estimated
Wed 12:24:00 PM 71.0802 -43.7030 269° West  Level Estimated
Wed 12:25:00 PM 71.0757 -44.0948 268° West  Level Estimated
Wed 12:26:00 PM 71.0703 -44.4865 268° West  Level Estimated
Wed 12:27:00 PM 71.0641 -44.8780 267° West  Level Estimated
Wed 12:28:00 PM 71.0571 -45.2692 267° West  Level Estimated
Wed 12:29:00 PM 71.0493 -45.6600 267° West  Level Estimated
Wed 12:30:00 PM 71.0407 -46.0506 266° West  Level Estimated
Wed 12:31:00 PM 71.0312 -46.4408 266° West  Level Estimated
Wed 12:32:00 PM 71.0210 -46.8306 266° West  Level Estimated
Wed 12:33:00 PM 71.0099 -47.2200 265° West  Level Estimated
Wed 12:34:00 PM 70.9980 -47.6090 265° West  Level Estimated
Wed 12:35:00 PM 70.9853 -47.9974 264° West  Level Estimated
Wed 12:36:00 PM 70.9717 -48.3853 264° West  Level Estimated
Wed 12:37:00 PM 70.9574 -48.7727 264° West  Level Estimated
Wed 12:38:00 PM 70.9423 -49.1595 263° West  Level Estimated
Wed 12:39:00 PM 70.9263 -49.5457 263° West  Level Estimated
Wed 12:40:00 PM 70.9096 -49.9313 263° West  Level Estimated
Wed 12:41:00 PM 70.8921 -50.3162 262° West  Level Estimated
Wed 12:42:00 PM 70.8737 -50.7004 262° West  Level Estimated
Wed 12:43:00 PM 70.8546 -51.0839 262° West  Level Estimated
Wed 12:44:00 PM 70.8346 -51.4666 261° West  Level Estimated
Wed 12:45:00 PM 70.8139 -51.8486 261° West  Level Estimated
Wed 12:46:00 PM 70.7924 -52.2297 260° West  Level Estimated
Wed 12:47:00 PM 70.7701 -52.6101 260° West  Level Estimated
Wed 12:48:00 PM 70.7470 -52.9895 260° West  Level Estimated
Wed 12:49:00 PM 70.7232 -53.3681 259° West  Level Estimated
Wed 12:50:00 PM 70.6985 -53.7457 259° West  Level Estimated
Wed 12:51:00 PM 70.6731 -54.1224 259° West  Level Estimated
Wed 12:52:00 PM 70.6469 -54.4981 258° West  Level Estimated
Wed 12:53:00 PM 70.6200 -54.8729 258° West  Level Estimated
Wed 12:54:00 PM 70.5923 -55.2466 258° West  Level Estimated
Wed 12:55:00 PM 70.5638 -55.6193 257° West  Level Estimated
Wed 12:56:00 PM 70.5346 -55.9909 257° West  Level Estimated
Wed 12:57:00 PM 70.5046 -56.3615 257° West  Level Estimated
Wed 12:58:00 PM 70.4738 -56.7309 256° West  Level Estimated
Wed 12:59:00 PM 70.4423 -57.0992 256° West  Level Estimated
Wed 01:00:00 PM 70.4101 -57.4663 255° West  Level Estimated
Wed 01:01:00 PM 70.3771 -57.8323 255° West  Level Estimated
Wed 01:02:00 PM 70.3434 -58.1971 255° West  Level Estimated
Wed 01:03:00 PM 70.3089 -58.5607 254° West  Level Estimated
Wed 01:04:00 PM 70.2738 -58.9230 254° West  Level Estimated
Wed 01:05:00 PM 70.2378 -59.2841 254° West  Level Estimated
Wed 01:06:00 PM 70.2012 -59.6439 253° West  Level Estimated
Wed 01:07:00 PM 70.1639 -60.0025 253° West  Level Estimated
Wed 01:08:00 PM 70.1258 -60.3597 253° West  Level Estimated
Wed 01:09:00 PM 70.0871 -60.7156 252° West  Level Estimated
Wed 01:10:00 PM 70.0476 -61.0702 252° West  Level Estimated
Wed 01:11:00 PM 70.0074 -61.4234 252° West  Level Estimated
Wed 01:12:00 PM 69.9665 -61.7752 251° West  Level Estimated
Wed 01:13:00 PM 69.9250 -62.1257 251° West  Level Estimated
Wed 01:14:00 PM 69.8827 -62.4747 251° West  Level Estimated
Wed 01:15:00 PM 69.8398 -62.8223 250° West  Level Estimated
Wed 01:16:00 PM 69.7962 -63.1686 250° West  Level Estimated
Wed 01:17:00 PM 69.7519 -63.5133 250° West  Level Estimated
Wed 01:18:00 PM 69.7069 -63.8567 249° West  Level Estimated
Wed 01:19:00 PM 69.6613 -64.1985 249° West  Level Estimated
Wed 01:20:00 PM 69.6150 -64.5389 249° West  Level Estimated
Wed 01:21:00 PM 69.5681 -64.8778 248° West  Level Estimated
Wed 01:22:00 PM 69.5205 -65.2152 248° West  Level Estimated
Wed 01:23:00 PM 69.4709 -65.5600 248° West  Level Estimated
Wed 01:24:00 PM 69.4207 -65.9032 248° West  Level Estimated
Wed 01:25:00 PM 69.3698 -66.2448 247° West  Level Estimated
Wed 01:26:00 PM 69.3183 -66.5848 247° West  Level Estimated
Wed 01:27:00 PM 69.2660 -66.9232 247° West  Level Estimated
Wed 01:28:00 PM 69.2132 -67.2599 246° West  Level Estimated
Wed 01:29:00 PM 69.1596 -67.5950 246° West  Level Estimated
Wed 01:30:00 PM 69.1054 -67.9284 246° West  Level Estimated
Wed 01:31:00 PM 69.0506 -68.2602 245° Southwest  Level Estimated
Wed 01:32:00 PM 68.9951 -68.5903 245° Southwest  Level Estimated
Wed 01:33:00 PM 68.9390 -68.9188 245° Southwest  Level Estimated
Wed 01:34:00 PM 68.8823 -69.2455 244° Southwest  Level Estimated
Wed 01:35:00 PM 68.8249 -69.5706 244° Southwest  Level Estimated
Wed 01:36:00 PM 68.7670 -69.8940 244° Southwest  Level Estimated
Wed 01:37:00 PM 68.7084 -70.2157 243° Southwest  Level Estimated
Wed 01:38:00 PM 68.6492 -70.5358 243° Southwest  Level Estimated
Wed 01:39:00 PM 68.5894 -70.8541 243° Southwest  Level Estimated
Wed 01:40:00 PM 68.5290 -71.1707 243° Southwest  Level Estimated
Wed 01:41:00 PM 68.4680 -71.4856 242° Southwest  Level Estimated
Wed 01:42:00 PM 68.4065 -71.7989 242° Southwest  Level Estimated
Wed 01:43:00 PM 68.3443 -72.1104 242° Southwest  Level Estimated
Wed 01:44:00 PM 68.2816 -72.4202 241° Southwest  Level Estimated
Wed 01:45:00 PM 68.2183 -72.7283 241° Southwest  Level Estimated
Wed 01:46:00 PM 68.1544 -73.0347 241° Southwest  Level Estimated
Wed 01:47:00 PM 68.0900 -73.3394 241° Southwest  Level Estimated
Wed 01:48:00 PM 68.0250 -73.6424 240° Southwest  Level Estimated
Wed 01:49:00 PM 67.9594 -73.9437 240° Southwest  Level Estimated
Wed 01:50:00 PM 67.8933 -74.2433 240° Southwest  Level Estimated
Wed 01:51:00 PM 67.8267 -74.5411 239° Southwest  Level Estimated
Wed 01:52:00 PM 67.7595 -74.8373 239° Southwest  Level Estimated
Wed 01:53:00 PM 67.6918 -75.1318 239° Southwest  Level Estimated
Wed 01:54:00 PM 67.6236 -75.4245 239° Southwest  Level Estimated
Wed 01:55:00 PM 67.5548 -75.7156 238° Southwest  Level Estimated
Wed 01:56:00 PM 67.4855 -76.0050 238° Southwest  Level Estimated
Wed 01:57:00 PM 67.4157 -76.2927 238° Southwest  Level Estimated
Wed 01:58:00 PM 67.3454 -76.5787 238° Southwest  Level Estimated
Wed 01:59:00 PM 67.2746 -76.8631 237° Southwest  Level Estimated
Wed 02:00:00 PM 67.2033 -77.1457 237° Southwest  Level Estimated
Wed 02:01:00 PM 67.1315 -77.4267 237° Southwest  Level Estimated
Wed 02:02:00 PM 67.0592 -77.7060 237° Southwest  Level Estimated
Wed 02:03:00 PM 66.9864 -77.9836 236° Southwest  Level Estimated
Wed 02:04:00 PM 66.9132 -78.2596 236° Southwest  Level Estimated
Wed 02:05:00 PM 66.8394 -78.5339 236° Southwest  Level Estimated
Wed 02:06:00 PM 66.7652 -78.8066 235° Southwest  Level Estimated
Wed 02:07:00 PM 66.6905 -79.0776 235° Southwest  Level Estimated
Wed 02:08:00 PM 66.6154 -79.3470 235° Southwest  Level Estimated
Wed 02:09:00 PM 66.5398 -79.6147 235° Southwest  Level Estimated
Wed 02:10:00 PM 66.4638 -79.8809 234° Southwest  Level Estimated
Wed 02:11:00 PM 66.3873 -80.1453 234° Southwest  Level Estimated
Wed 02:12:00 PM 66.3103 -80.4082 234° Southwest  Level Estimated
Wed 02:13:00 PM 66.2329 -80.6695 234° Southwest  Level Estimated
Wed 02:14:00 PM 66.1551 -80.9292 234° Southwest  Level Estimated
Wed 02:15:00 PM 66.0768 -81.1873 233° Southwest  Level Estimated
Wed 02:16:00 PM 65.9981 -81.4437 233° Southwest  Level Estimated
Wed 02:17:00 PM 65.9190 -81.6987 233° Southwest  Level Estimated
Wed 02:18:00 PM 65.8395 -81.9520 233° Southwest  Level Estimated
Wed 02:19:00 PM 65.7595 -82.2038 232° Southwest  Level Estimated
Wed 02:20:00 PM 65.6792 -82.4540 232° Southwest  Level Estimated
Wed 02:21:00 PM 65.5984 -82.7026 232° Southwest  Level Estimated
Wed 02:22:00 PM 65.5172 -82.9497 232° Southwest  Level Estimated
Wed 02:23:00 PM 65.4357 -83.1953 231° Southwest  Level Estimated
Wed 02:24:00 PM 65.3537 -83.4393 231° Southwest  Level Estimated
Wed 02:25:00 PM 65.2714 -83.6819 231° Southwest  Level Estimated
Wed 02:26:00 PM 65.1886 -83.9229 231° Southwest  Level Estimated
Wed 02:27:00 PM 65.1055 -84.1624 231° Southwest  Level Estimated
Wed 02:28:00 PM 65.0220 -84.4004 230° Southwest  Level Estimated
Wed 02:29:00 PM 64.9381 -84.6369 230° Southwest  Level Estimated
Wed 02:30:00 PM 64.8539 -84.8719 230° Southwest  Level Estimated
Wed 02:31:00 PM 64.7692 -85.1055 230° Southwest  Level Estimated
Wed 02:32:00 PM 64.6842 -85.3376 229° Southwest  Level Estimated
Wed 02:33:00 PM 64.5989 -85.5683 229° Southwest  Level Estimated
Wed 02:34:00 PM 64.5132 -85.7975 229° Southwest  Level Estimated
Wed 02:35:00 PM 64.4271 -86.0253 229° Southwest  Level Estimated
Wed 02:36:00 PM 64.3407 -86.2516 229° Southwest  Level Estimated
Wed 02:37:00 PM 64.2540 -86.4765 228° Southwest  Level Estimated
Wed 02:38:00 PM 64.1668 -86.7000 228° Southwest  Level Estimated
Wed 02:39:00 PM 64.0794 -86.9221 228° Southwest  Level Estimated
Wed 02:40:00 PM 63.9916 -87.1429 228° Southwest  Level Estimated
Wed 02:41:00 PM 63.9035 -87.3622 228° Southwest  Level Estimated
Wed 02:42:00 PM 63.8151 -87.5801 227° Southwest  Level Estimated
Wed 02:43:00 PM 63.7263 -87.7967 227° Southwest  Level Estimated
Wed 02:44:00 PM 63.6372 -88.0120 227° Southwest  Level Estimated
Wed 02:45:00 PM 63.5478 -88.2259 227° Southwest  Level Estimated
Wed 02:46:00 PM 63.4581 -88.4384 227° Southwest  Level Estimated
Wed 02:47:00 PM 63.3680 -88.6496 226° Southwest  Level Estimated
Wed 02:48:00 PM 63.2777 -88.8595 226° Southwest  Level Estimated
Wed 02:49:00 PM 63.1870 -89.0681 226° Southwest  Level Estimated
Wed 02:50:00 PM 63.0961 -89.2754 226° Southwest  Level Estimated
Wed 02:51:00 PM 63.0048 -89.4814 226° Southwest  Level Estimated
Wed 02:52:00 PM 62.9132 -89.6860 226° Southwest  Level Estimated
Wed 02:53:00 PM 62.8214 -89.8895 225° Southwest  Level Estimated
Wed 02:54:00 PM 62.7293 -90.0916 225° Southwest  Level Estimated
Wed 02:55:00 PM 62.6368 -90.2925 225° Southwest  Level Estimated
Wed 02:56:00 PM 62.5441 -90.4921 225° Southwest  Level Estimated
Wed 02:57:00 PM 62.4511 -90.6905 225° Southwest  Level Estimated
Wed 02:58:00 PM 62.3578 -90.8877 224° Southwest  Level Estimated
Wed 02:59:00 PM 62.2643 -91.0836 224° Southwest  Level Estimated
Wed 03:00:00 PM 62.1704 -91.2784 224° Southwest  Level Estimated
Wed 03:01:00 PM 62.0763 -91.4719 224° Southwest  Level Estimated
Wed 03:02:00 PM 61.9820 -91.6642 224° Southwest  Level Estimated
Wed 03:03:00 PM 61.8873 -91.8553 224° Southwest  Level Estimated
Wed 03:04:00 PM 61.7924 -92.0453 223° Southwest  Level Estimated
Wed 03:05:00 PM 61.6973 -92.2341 223° Southwest  Level Estimated
Wed 03:06:00 PM 61.6018 -92.4217 223° Southwest  Level Estimated
Wed 03:07:00 PM 61.5062 -92.6082 223° Southwest  Level Estimated
Wed 03:08:00 PM 61.4102 -92.7935 223° Southwest  Level Estimated
Wed 03:09:00 PM 61.3141 -92.9777 223° Southwest  Level Estimated
Wed 03:10:00 PM 61.2176 -93.1607 222° Southwest  Level Estimated
Wed 03:11:00 PM 61.1210 -93.3427 222° Southwest  Level Estimated
Wed 03:12:00 PM 61.0240 -93.5235 222° Southwest  Level Estimated
Wed 03:13:00 PM 60.9269 -93.7032 222° Southwest  Level Estimated
Wed 03:14:00 PM 60.8295 -93.8819 222° Southwest  Level Estimated
Wed 03:15:00 PM 60.7319 -94.0594 222° Southwest  Level Estimated
Wed 03:16:00 PM 60.6340 -94.2359 222° Southwest  Level Estimated
Wed 03:17:00 PM 60.5359 -94.4113 221° Southwest  Level Estimated
Wed 03:18:00 PM 60.4376 -94.5856 221° Southwest  Level Estimated
Wed 03:19:00 PM 60.3390 -94.7589 221° Southwest  Level Estimated
Wed 03:20:00 PM 60.2403 -94.9311 221° Southwest  Level Estimated
Wed 03:21:00 PM 60.1413 -95.1023 221° Southwest  Level Estimated
Wed 03:22:00 PM 60.0421 -95.2725 221° Southwest  Level Estimated
Wed 03:23:00 PM 59.9426 -95.4416 220° Southwest  Level Estimated
Wed 03:24:00 PM 59.8430 -95.6098 220° Southwest  Level Estimated
Wed 03:25:00 PM 59.7431 -95.7769 220° Southwest  Level Estimated
Wed 03:25:50 PM 62.5833 -105.0000 219° Southwest 480 552 36,000  Level Edmonton Center
Wed 03:26:00 PM 59.6431 -95.9430 220° Southwest  Level Estimated
Wed 03:26:50 PM 62.4833 -105.1000 205° Southwest 460 529 36,000  Level Edmonton Center
Wed 03:27:00 PM 59.5428 -96.1082 220° Southwest  Level Estimated
Wed 03:27:50 PM 62.3667 -105.2500 211° Southwest 460 529 36,000  Level Edmonton Center
Wed 03:28:00 PM 59.4423 -96.2724 220° Southwest  Level Estimated
Wed 03:28:50 PM 62.2500 -105.4000 211° Southwest 460 529 36,000  Level Edmonton Center
Wed 03:29:00 PM 59.3416 -96.4356 220° Southwest  Level Estimated
Wed 03:29:50 PM 62.1500 -105.5333 212° Southwest 460 529 36,000  Level Edmonton Center
Wed 03:30:00 PM 59.2407 -96.5978 219° Southwest  Level Estimated
Wed 03:30:50 PM 62.0333 -105.6833 211° Southwest 470 541 36,000  Level Edmonton Center
Wed 03:31:00 PM 59.1396 -96.7591 219° Southwest  Level Estimated
Wed 03:31:50 PM 61.9000 -105.8167 205° Southwest 470 541 36,000  Level Edmonton Center
Wed 03:32:50 PM 61.7833 -105.9667 211° Southwest 470 541 36,000  Level Edmonton Center
Wed 03:33:50 PM 61.6667 -106.1000 208° Southwest 470 541 36,000  Level Edmonton Center
Wed 03:34:50 PM 61.5667 -106.2333 212° Southwest 460 529 36,000  Level Edmonton Center
Wed 03:35:50 PM 61.4500 -106.3833 212° Southwest 470 541 36,000  Level Edmonton Center
Wed 03:36:50 PM 61.3167 -106.5167 206° Southwest 470 541 36,000  Level Edmonton Center
Wed 03:37:50 PM 61.2167 -106.6500 213° Southwest 470 541 36,000  Level Edmonton Center
Wed 03:38:50 PM 61.1000 -106.7500 203° Southwest 470 541 36,000  Level Edmonton Center
Wed 03:39:50 PM 60.9833 -106.8833 209° Southwest 470 541 36,000  Level Edmonton Center
Wed 03:40:50 PM 60.8833 -107.0167 213° Southwest 470 541 36,000  Level Edmonton Center
Wed 03:41:50 PM 60.7500 -107.1500 206° Southwest 470 541 36,000  Level Edmonton Center
Wed 03:42:50 PM 60.6333 -107.2833 209° Southwest 470 541 36,000  Level Edmonton Center
Wed 03:43:50 PM 60.5167 -107.4000 206° Southwest 470 541 36,000  Level Edmonton Center
Wed 03:44:50 PM 60.4167 -107.5333 213° Southwest 470 541 36,000  Level Edmonton Center
Wed 03:45:50 PM 60.2667 -107.6667 204° Southwest 470 541 36,000  Level Edmonton Center
Wed 03:46:50 PM 60.1500 -107.7833 206° Southwest 470 541 36,000  Level Edmonton Center
Wed 03:47:50 PM 60.0500 -107.9167 214° Southwest 480 552 36,000  Level Edmonton Center
Wed 03:48:50 PM 59.9167 -108.0333 204° Southwest 480 552 36,000  Level Edmonton Center
Wed 03:49:50 PM 59.8000 -108.1667 210° Southwest 480 552 36,000  Level Edmonton Center
Wed 03:50:50 PM 59.6833 -108.2833 207° Southwest 480 552 36,000  Level Edmonton Center
Wed 03:51:50 PM 59.5500 -108.4167 207° Southwest 480 552 36,000  Level Edmonton Center
Wed 03:52:50 PM 59.4500 -108.5333 211° Southwest 480 552 36,000  Level Edmonton Center
Wed 03:53:50 PM 59.3333 -108.6500 207° Southwest 480 552 36,000  Level Edmonton Center
Wed 03:54:50 PM 59.2000 -108.7667 204° Southwest 470 541 36,000  Level Edmonton Center
Wed 03:55:50 PM 59.0833 -108.8833 207° Southwest 470 541 36,000  Level Edmonton Center
Wed 03:56:50 PM 58.9667 -109.0167 211° Southwest 470 541 36,000  Level Edmonton Center
Wed 03:57:50 PM 58.8500 -109.1333 207° Southwest 480 552 36,000  Level Edmonton Center
Wed 03:58:50 PM 58.7167 -109.2500 204° Southwest 480 552 36,000  Level Edmonton Center
Wed 03:59:50 PM 58.6000 -109.3500 204° Southwest 480 552 36,000  Level Edmonton Center
Wed 04:00:50 PM 58.4833 -109.4667 208° Southwest 480 552 36,000  Level Edmonton Center
Wed 04:01:50 PM 58.3667 -109.5833 208° Southwest 480 552 36,000  Level Edmonton Center
Wed 04:02:50 PM 58.2500 -109.7000 208° Southwest 480 552 36,000  Level Edmonton Center
Wed 04:03:50 PM 58.1167 -109.8167 205° Southwest 480 552 36,000  Level Edmonton Center
Wed 04:04:50 PM 58.0000 -109.9333 208° Southwest 480 552 36,000  Level Edmonton Center
Wed 04:05:50 PM 57.8667 -110.0333 202° Southwest 480 552 36,000  Level Edmonton Center
Wed 04:06:50 PM 57.7500 -110.1500 208° Southwest 480 552 36,000  Level Edmonton Center
Wed 04:07:50 PM 57.6167 -110.2500 202° Southwest 480 552 36,000  Level Edmonton Center
Wed 04:08:50 PM 57.5000 -110.3667 208° Southwest 490 564 36,000  Level Edmonton Center
Wed 04:09:50 PM 57.4000 -110.4667 208° Southwest 490 564 36,000  Level Edmonton Center
Wed 04:10:50 PM 57.2500 -110.6167 208° Southwest 490 564 36,000  Level Edmonton Center
Wed 04:11:50 PM 57.1333 -110.7167 205° Southwest 490 564 36,000  Level Edmonton Center
Wed 04:12:50 PM 57.0000 -110.8167 202° Southwest 490 564 36,000  Level Edmonton Center
Wed 04:13:50 PM 56.8833 -110.9333 209° Southwest 490 564 36,000  Level Edmonton Center
Wed 04:14:50 PM 56.7500 -111.0333 202° Southwest 490 564 36,000  Level Edmonton Center
Wed 04:15:50 PM 56.6333 -111.1333 205° Southwest 490 564 36,000  Level Edmonton Center
Wed 04:16:50 PM 56.5000 -111.2333 202° Southwest 490 564 36,000  Level Edmonton Center
Wed 04:17:50 PM 56.3833 -111.3333 205° Southwest 480 552 36,000  Level Edmonton Center
Wed 04:18:50 PM 56.2667 -111.4167 202° Southwest 480 552 36,000  Level Edmonton Center
Wed 04:19:50 PM 56.1333 -111.4833 196° South 490 564 36,000  Level Edmonton Center
Wed 04:20:50 PM 56.0000 -111.5833 203° Southwest 480 552 36,000  Level Edmonton Center
Wed 04:21:50 PM 55.8667 -111.6500 196° South 480 552 36,000  Level Edmonton Center
Wed 04:22:50 PM 55.7500 -111.7500 206° Southwest 480 552 36,000  Level Edmonton Center
Wed 04:23:50 PM 55.6333 -111.8167 198° South 480 552 36,000  Level Edmonton Center
Wed 04:24:50 PM 55.4833 -111.9167 201° Southwest 480 552 36,000  Level Edmonton Center
Wed 04:25:50 PM 55.3667 -111.9833 198° South 490 564 36,000  Level Edmonton Center
Wed 04:26:50 PM 55.2167 -112.0667 198° South 490 564 36,000  Level Edmonton Center
Wed 04:27:50 PM 55.1000 -112.1333 198° South 490 564 36,000  Level Edmonton Center
Wed 04:28:50 PM 54.9667 -112.2000 196° South 490 564 36,000  Level Edmonton Center
Wed 04:29:50 PM 54.8333 -112.3000 203° Southwest 490 564 36,000  Level Edmonton Center
Wed 04:35:32 PM 54.1310 -112.7000 203° Southwest 490 564 36,000  Level FlightAware ADS-B
Wed 04:36:12 PM 54.0440 -112.7490 198° South 488 562 36,000  Level FlightAware ADS-B
Wed 04:36:52 PM 53.9570 -112.7990 199° South 479 551 36,000  Level FlightAware ADS-B
Wed 04:37:37 PM 53.8610 -112.8530 198° South 478 550 36,000  Level FlightAware ADS-B
Wed 04:38:17 PM 53.7780 -112.9000 199° South 478 550 36,000  Level FlightAware ADS-B
Wed 04:39:02 PM 53.6810 -112.9540 198° South 478 550 36,000  Level FlightAware ADS-B
Wed 04:39:42 PM 53.5970 -113.0010 198° South 487 560 36,000  Level FlightAware ADS-B
Wed 04:40:27 PM 53.5000 -113.0560 199° South 476 548 36,000  Level FlightAware ADS-B
Wed 04:41:07 PM 53.4160 -113.1020 198° South 474 545 36,000  Level FlightAware ADS-B
Wed 04:41:47 PM 53.3330 -113.1480 198° South 472 543 36,000  Level FlightAware ADS-B
Wed 04:42:32 PM 53.2370 -113.2010 198° South 472 543 36,000  Level FlightAware ADS-B
Wed 04:43:12 PM 53.1540 -113.2460 198° South 473 544 36,000  Level FlightAware ADS-B
Wed 04:43:52 PM 53.0680 -113.2930 198° South 474 545 36,000  Level FlightAware ADS-B
Wed 04:44:37 PM 52.9740 -113.3440 198° South 475 547 36,000  Level FlightAware ADS-B
Wed 04:45:17 PM 52.8870 -113.3910 198° South 475 547 36,000  Level FlightAware ADS-B
Wed 04:46:02 PM 52.7930 -113.4410 198° South 474 545 36,000  Level FlightAware ADS-B
Wed 04:46:37 PM 52.7200 -113.4800 198° South 474 545 36,000  Level FlightAware ADS-B
Wed 04:47:22 PM 52.6240 -113.5310 198° South 472 543 36,000  Level FlightAware ADS-B
Wed 04:48:07 PM 52.5300 -113.5810 198° South 473 544 36,000  Level FlightAware ADS-B
Wed 04:48:47 PM 52.4430 -113.6270 198° South 475 547 36,000  Level FlightAware ADS-B
Wed 04:49:27 PM 52.3610 -113.6700 198° South 474 545 36,000  Level FlightAware ADS-B
Wed 04:50:12 PM 52.2650 -113.7200 198° South 475 547 36,000  Level FlightAware ADS-B
Wed 04:50:52 PM 52.1790 -113.7650 198° South 475 547 36,000  Level FlightAware ADS-B
Wed 04:51:32 PM 52.0940 -113.8090 198° South 474 545 36,000  Level FlightAware ADS-B
Wed 04:52:17 PM 51.9980 -113.8590 198° South 476 548 36,000  Level FlightAware ADS-B
Wed 04:52:57 PM 51.9140 -113.9020 198° South 477 549 36,000  Level FlightAware ADS-B
Wed 04:53:42 PM 51.8160 -113.9520 198° South 476 548 36,000  Level FlightAware ADS-B
Wed 04:54:22 PM 51.7350 -113.9940 198° South 476 548 36,000  Level FlightAware ADS-B
Wed 04:55:02 PM 51.6480 -114.0380 197° South 475 547 36,000  Level FlightAware ADS-B
Wed 04:55:47 PM 51.5510 -114.0880 198° South 476 548 36,000  Level FlightAware ADS-B
Wed 04:56:27 PM 51.4670 -114.1300 197° South 485 558 36,000  Level FlightAware ADS-B
Wed 04:57:12 PM 51.3690 -114.1790 197° South 486 559 36,000  Level FlightAware ADS-B
Wed 04:57:57 PM 51.2720 -114.2270 197° South 485 558 36,000  Level FlightAware ADS-B
Wed 04:58:37 PM 51.1850 -114.2710 198° South 476 548 36,000  Level FlightAware ADS-B
Wed 04:59:17 PM 51.1030 -114.3120 197° South 476 548 36,000  Level FlightAware ADS-B
Wed 05:00:02 PM 51.0060 -114.3590 197° South 485 558 36,000  Level FlightAware ADS-B
Wed 05:00:42 PM 50.9210 -114.4010 197° South 484 557 36,000  Level FlightAware ADS-B
Wed 05:01:22 PM 50.8360 -114.4430 197° South 485 558 36,000  Level FlightAware ADS-B
Wed 05:02:07 PM 50.7380 -114.4910 197° South 485 558 36,000  Level FlightAware ADS-B
Wed 05:02:52 PM 50.6440 -114.5360 197° South 487 560 36,000  Level FlightAware ADS-B
Wed 05:03:27 PM 50.5650 -114.5750 197° South 489 563 36,000  Level FlightAware ADS-B
Wed 05:04:12 PM 50.4690 -114.6210 197° South 488 562 36,000  Level FlightAware ADS-B
Wed 05:04:52 PM 50.3830 -114.6620 197° South 490 564 36,000  Level FlightAware ADS-B
Wed 05:05:37 PM 50.2870 -114.7080 197° South 485 558 36,000  Level FlightAware ADS-B
Wed 05:06:17 PM 50.1960 -114.7510 197° South 491 565 36,000  Level FlightAware ADS-B
Wed 05:06:57 PM 50.1090 -114.7930 197° South 491 565 36,000  Level FlightAware ADS-B
Wed 05:07:42 PM 50.0110 -114.8390 197° South 486 559 36,000  Level FlightAware ADS-B
Wed 05:08:22 PM 49.9250 -114.8800 197° South 486 559 36,000  Level FlightAware ADS-B
Wed 05:09:07 PM 49.8260 -114.9260 197° South 484 557 36,000  Level FlightAware ADS-B
Wed 05:09:47 PM 49.7410 -114.9660 197° South 485 558 36,000 75 Level FlightAware ADS-B
Wed 05:10:27 PM 49.6550 -115.0060 197° South 487 560 36,100 918 Climbing FlightAware ADS-B
Wed 05:11:12 PM 49.5610 -115.0490 197° South 487 560 37,300 1,267 Climbing FlightAware ADS-B
Wed 05:11:57 PM 49.4530 -115.0990 197° South 485 558 38,000 494 Climbing FlightAware ADS-B
Wed 05:12:37 PM 49.3670 -115.1390 197° South 487 560 38,000  Level FlightAware ADS-B
Wed 05:13:17 PM 49.2820 -115.1780 197° South 490 564 38,000  Level FlightAware ADS-B
Wed 05:14:02 PM 49.1970 -115.2170 197° South 490 564 38,000  Level FlightAware ADS-B
Wed 05:14:37 PM 49.1070 -115.2580 197° South 490 564 38,000  Level FlightAware ADS-B
Wed 05:15:22 PM 49.0150 -115.2990 196° South 490 564 38,000  Level FlightAware ADS-B
Wed 05:16:07 PM 48.9080 -115.3470 196° South 499 574 38,000  Level FlightAware ADS-B
Wed 05:16:47 PM 48.8210 -115.3870 197° South 501 577 38,000  Level FlightAware ADS-B
Wed 05:17:32 PM 48.7190 -115.4320 196° South 503 579 38,000  Level FlightAware ADS-B
Wed 05:18:02 PM 48.6550 -115.4610 197° South 502 578 38,000  Level FlightAware ADS-B
Wed 05:18:57 PM 48.5300 -115.5160 196° South 503 579 38,000  Level FlightAware ADS-B
Wed 05:19:37 PM 48.4450 -115.5540 197° South 503 579 38,000  Level FlightAware ADS-B
Wed 05:20:12 PM 48.3700 -115.5860 196° South 504 580 38,000  Level FlightAware ADS-B
Wed 05:21:02 PM 48.2740 -115.6280 196° South 504 580 38,000  Level FlightAware ADS-B
Wed 05:21:42 PM 48.1980 -115.6600 196° South 504 580 38,000  Level FlightAware ADS-B
Wed 05:22:22 PM 48.1220 -115.6930 196° South 504 580 38,000  Level FlightAware ADS-B
Wed 05:23:02 PM 48.0460 -115.7260 196° South 504 580 38,000  Level FlightAware ADS-B
Wed 05:23:42 PM 47.9700 -115.7580 196° South 504 580 38,000  Level FlightAware ADS-B
Wed 05:24:32 PM 47.8740 -115.7990 196° South 504 580 38,000  Level FlightAware ADS-B
Wed 05:25:12 PM 47.7980 -115.8320 196° South 504 580 38,000  Level FlightAware ADS-B
Wed 05:25:52 PM 47.7220 -115.8640 196° South 504 580 38,000  Level FlightAware ADS-B
Wed 05:26:32 PM 47.6460 -115.8970 196° South 504 580 38,000  Level FlightAware ADS-B
Wed 05:27:12 PM 47.5700 -115.9290 196° South 504 580 38,000  Level FlightAware ADS-B
Wed 05:28:02 PM 47.4740 -115.9700 196° South 504 580 38,000  Level FlightAware ADS-B
Wed 05:28:42 PM 47.3980 -116.0020 196° South 504 580 38,000  Level FlightAware ADS-B
Wed 05:29:22 PM 47.3220 -116.0340 196° South 504 580 38,000  Level FlightAware ADS-B
Wed 05:29:51 PM 47.0747 -116.1436 196° South 504 580 38,000  Level Seattle Center
Wed 05:30:52 PM 46.9389 -116.1983 195° South 505 581 38,000  Level Seattle Center
Wed 05:31:53 PM 46.8036 -116.2556 196° South 504 580 38,000  Level Seattle Center
Wed 05:32:54 PM 46.6692 -116.3111 196° South 502 578 38,000  Level Seattle Center
Wed 05:33:55 PM 46.5342 -116.3678 196° South 504 580 38,000  Level Seattle Center
Wed 05:34:56 PM 46.3994 -116.4214 195° South 501 577 38,000  Level Seattle Center
Wed 05:35:57 PM 46.2642 -116.4769 196° South 504 580 38,000  Level Seattle Center
Wed 05:36:57 PM 46.1300 -116.5292 195° South 501 577 38,000  Level Seattle Center
Wed 05:37:58 PM 45.9681 -116.5958 196° South 503 579 38,000  Level Seattle Center
Wed 05:38:59 PM 45.8336 -116.6483 195° South 501 577 38,000  Level Seattle Center
Wed 05:40:00 PM 45.7011 -116.7036 196° South 498 573 38,000  Level Seattle Center
Wed 05:41:01 PM 45.5731 -116.7547 196° South 498 573 38,000  Level Seattle Center
Wed 05:42:02 PM 45.4239 -116.8136 195° South 497 572 38,000  Level Seattle Center
Wed 05:43:03 PM 45.2967 -116.8608 195° South 496 571 38,000  Level Seattle Center
Wed 05:44:04 PM 45.1697 -116.9122 196° South 496 571 38,000  Level Seattle Center
Wed 05:44:38 PM 45.0861 -116.9439 195° South 494 568 38,000  Level Salt Lake Center
Wed 05:45:40 PM 44.9631 -116.9992 198° South 489 563 38,000  Level Salt Lake Center
Wed 05:46:42 PM 44.8183 -117.0642 198° South 489 563 38,000  Level Salt Lake Center
Wed 05:47:44 PM 44.6936 -117.1169 197° South 491 565 38,000  Level Salt Lake Center
Wed 05:48:07 PM 44.6300 -117.1447 197° South 493 567 38,000  Level Seattle Center
Wed 05:48:45 PM 44.5444 -117.1811 197° South 502 578 38,000  Level Salt Lake Center
Wed 05:49:47 PM 44.4175 -117.2353 197° South 501 577 38,000  Level Salt Lake Center
Wed 05:50:49 PM 44.2686 -117.2986 197° South 503 579 38,000  Level Salt Lake Center
Wed 05:51:51 PM 44.1419 -117.3522 197° South 499 574 38,000  Level Salt Lake Center
Wed 05:52:53 PM 43.9936 -117.4164 197° South 501 577 38,000  Level Salt Lake Center
Wed 05:53:54 PM 43.8661 -117.4700 197° South 501 577 38,000  Level Salt Lake Center
Wed 05:54:56 PM 43.7175 -117.5311 197° South 499 574 38,000  Level Salt Lake Center
Wed 05:55:58 PM 43.5936 -117.5853 198° South 489 563 38,000  Level Salt Lake Center
Wed 05:57:00 PM 43.4664 -117.6378 197° South 496 571 38,000  Level Salt Lake Center
Wed 05:58:01 PM 43.3189 -117.6981 197° South 495 570 38,000  Level Salt Lake Center
Wed 05:59:03 PM 43.1922 -117.7500 197° South 496 571 38,000  Level Salt Lake Center
Wed 06:00:05 PM 43.0444 -117.8117 197° South 498 573 38,000  Level Salt Lake Center
Wed 06:01:07 PM 42.9186 -117.8619 196° South 494 568 38,000  Level Salt Lake Center
Wed 06:02:09 PM 42.7725 -117.9222 197° South 491 565 38,000  Level Salt Lake Center
Wed 06:03:10 PM 42.6481 -117.9733 197° South 488 562 38,000  Level Salt Lake Center
Wed 06:04:12 PM 42.5019 -118.0328 197° South 489 563 38,000  Level Salt Lake Center
Wed 06:05:14 PM 42.3775 -118.0828 197° South 488 562 38,000  Level Salt Lake Center
Wed 06:06:16 PM 42.2406 -118.1375 196° South 484 557 38,000  Level Salt Lake Center
Wed 06:07:17 PM 42.1158 -118.1875 197° South 487 560 38,000  Level Salt Lake Center
Wed 06:08:19 PM 41.9719 -118.2458 197° South 485 558 38,000  Level Salt Lake Center
Wed 06:09:21 PM 41.8472 -118.2942 196° South 486 559 38,000  Level Salt Lake Center
Wed 06:10:23 PM 41.7036 -118.3508 196° South 482 555 38,000  Level Salt Lake Center
Wed 06:11:24 PM 41.5806 -118.3992 196° South 481 554 38,000  Level Salt Lake Center
Wed 06:12:26 PM 41.4578 -118.4461 196° South 481 554 38,000  Level Salt Lake Center
Wed 06:13:28 PM 41.3153 -118.5014 196° South 479 551 38,000  Level Salt Lake Center
Wed 06:14:30 PM 41.1931 -118.5486 196° South 477 549 38,000  Level Salt Lake Center
Wed 06:15:32 PM 41.0517 -118.6031 196° South 476 548 38,000  Level Salt Lake Center
Wed 06:16:33 PM 40.9294 -118.6497 196° South 478 550 38,000  Level Salt Lake Center
Wed 06:17:35 PM 40.7886 -118.7036 196° South 473 544 38,000  Level Salt Lake Center
Wed 06:18:37 PM 40.6692 -118.7489 196° South 469 540 38,000  Level Salt Lake Center
Wed 06:19:33 PM 40.5606 -118.7903 196° South 472 543 38,000  Level Oakland Center
Wed 06:20:34 PM 40.4347 -118.8378 196° South 471 542 38,000  Level Oakland Center
Wed 06:21:35 PM 40.2847 -118.8936 196° South 467 537 38,000  Level Oakland Center
Wed 06:22:37 PM 40.1608 -118.9386 196° South 464 534 38,000 151 Level Oakland Center
Wed 06:28:12 PM 39.4640 -119.1830 196° South 471 542 39,000 160 Climbing FlightAware ADS-B
Wed 06:28:52 PM 39.3840 -119.1970 188° South 481 554 39,000  Level FlightAware ADS-B
Wed 06:29:37 PM 39.2700 -119.2200 189° South 473 544 39,000  Level FlightAware ADS-B
Wed 06:30:17 PM 39.2110 -119.2330 190° South 480 552 39,000  Level FlightAware ADS-B
Wed 06:31:02 PM 39.1080 -119.2520 188° South 482 555 39,000  Level FlightAware ADS-B
Wed 06:31:37 PM 39.0150 -119.2680 188° South 39,000  Level FlightAware ADS-B
Wed 06:33:47 PM 38.7190 -119.3200 188° South 471 542 39,000  Level FlightAware ADS-B
Wed 06:34:32 PM 38.6200 -119.3380 188° South 470 541 39,000  Level FlightAware ADS-B
Wed 06:35:12 PM 38.5390 -119.3510 187° South 469 540 39,000  Level FlightAware ADS-B
Wed 06:35:57 PM 38.4400 -119.3690 188° South 466 536 39,000  Level FlightAware ADS-B
Wed 06:36:37 PM 38.3590 -119.3830 188° South 463 533 39,000  Level FlightAware ADS-B
Wed 06:37:17 PM 38.2710 -119.3980 188° South 463 533 39,000  Level FlightAware ADS-B
Wed 06:37:52 PM 38.1970 -119.4110 188° South 463 533 39,000  Level FlightAware ADS-B
Wed 06:38:42 PM 38.0910 -119.4290 188° South 463 533 39,000  Level FlightAware ADS-B
Wed 06:39:27 PM 38.0080 -119.4420 187° South 463 533 39,000  Level FlightAware ADS-B
Wed 06:40:07 PM 37.9090 -119.4600 188° South 464 534 39,000  Level FlightAware ADS-B
Wed 06:40:47 PM 37.8230 -119.4740 187° South 465 535 39,000  Level FlightAware ADS-B
Wed 06:41:32 PM 37.7250 -119.4910 188° South 467 537 39,000  Level FlightAware ADS-B
Wed 06:42:12 PM 37.6410 -119.5050 188° South 467 537 39,000  Level FlightAware ADS-B
Wed 06:42:52 PM 37.5540 -119.5200 188° South 468 539 39,000  Level FlightAware ADS-B
Wed 06:43:37 PM 37.4590 -119.5360 188° South 465 535 39,000  Level FlightAware ADS-B
Wed 06:44:17 PM 37.3730 -119.5500 187° South 464 534 39,000  Level FlightAware ADS-B
Wed 06:45:02 PM 37.2800 -119.5660 188° South 462 532 39,000  Level FlightAware ADS-B
Wed 06:45:42 PM 37.1970 -119.5800 188° South 458 527 39,000  Level FlightAware ADS-B
Wed 06:46:22 PM 37.1080 -119.5930 187° South 457 526 39,000  Level FlightAware ADS-B
Wed 06:47:07 PM 37.0150 -119.5970 182° South 459 528 39,000  Level FlightAware ADS-B
Wed 06:47:47 PM 36.9330 -119.5990 181° South 462 532 39,000  Level FlightAware ADS-B
Wed 06:48:27 PM 36.8460 -119.6000 181° South 463 533 39,000  Level FlightAware ADS-B
Wed 06:49:12 PM 36.7490 -119.6020 181° South 466 536 39,000  Level FlightAware ADS-B
Wed 06:49:52 PM 36.6600 -119.6030 181° South 466 536 39,000  Level FlightAware ADS-B
Wed 06:50:32 PM 36.5740 -119.6050 181° South 467 537 39,000  Level FlightAware ADS-B
Wed 06:51:17 PM 36.4780 -119.6060 180° South 467 537 39,000  Level FlightAware ADS-B
Wed 06:51:57 PM 36.3920 -119.6080 181° South 466 536 39,000  Level FlightAware ADS-B
Wed 06:52:42 PM 36.2960 -119.6090 180° South 466 536 39,000  Level FlightAware ADS-B
Wed 06:53:22 PM 36.2100 -119.6110 181° South 467 537 39,000  Level FlightAware ADS-B
Wed 06:54:07 PM 36.1110 -119.6130 181° South 469 540 39,000  Level FlightAware ADS-B
Wed 06:54:47 PM 36.0230 -119.6140 181° South 471 542 39,000  Level FlightAware ADS-B
Wed 06:55:22 PM 35.9480 -119.6150 181° South 471 542 39,000  Level FlightAware ADS-B
Wed 06:56:12 PM 35.8400 -119.6200 182° South 473 544 39,000  Level FlightAware ADS-B
Wed 06:56:52 PM 35.7510 -119.6230 182° South 473 544 39,000  Level FlightAware ADS-B
Wed 06:57:37 PM 35.6540 -119.6270 182° South 474 545 39,000  Level FlightAware ADS-B
Wed 06:58:17 PM 35.5640 -119.6300 182° South 475 547 39,000  Level FlightAware ADS-B
Wed 06:58:57 PM 35.4750 -119.6330 182° South 475 547 39,000 -776 Level FlightAware ADS-B
Wed 06:59:42 PM 35.3750 -119.6370 182° South 478 550 37,900 -1,500 Descending FlightAware ADS-B
Wed 07:00:37 PM 35.2570 -119.6290 177° South 468 539 36,500 -1,768 Descending FlightAware ADS-B
Wed 07:01:17 PM 35.1810 -119.5780 151° Southeast 464 534 35,100 -2,329 Descending FlightAware ADS-B
Wed 07:02:02 PM 35.1060 -119.5140 145° Southeast 466 536 33,200 -3,106 Descending FlightAware ADS-B
Wed 07:02:42 PM 35.0340 -119.4520 145° Southeast 477 549 30,700 -3,318 Descending FlightAware ADS-B
Wed 07:03:27 PM 34.9500 -119.3800 145° Southeast 474 545 28,500 -2,612 Descending FlightAware ADS-B
Wed 07:04:07 PM 34.8800 -119.3210 145° Southeast 462 532 27,000 -2,325 Descending FlightAware ADS-B
Wed 07:04:47 PM 34.8110 -119.2620 145° Southeast 451 519 25,400 -2,329 Descending FlightAware ADS-B
Wed 07:05:32 PM 34.7330 -119.1970 146° Southeast 436 502 23,700 -2,188 Descending FlightAware ADS-B
Wed 07:06:12 PM 34.6690 -119.1400 144° Southeast 424 488 22,300 -1,200 Descending FlightAware ADS-B
Wed 07:06:57 PM 34.6120 -119.0630 132° Southeast 400 460 22,000 -282 Descending FlightAware ADS-B
Wed 07:07:37 PM 34.5610 -119.0120 141° Southeast 399 459 21,900 -1,650 Descending FlightAware ADS-B
Wed 07:08:17 PM 34.4880 -118.9740 157° South 377 434 19,800 -1,832 Descending FlightAware ADS-B
Wed 07:09:12 PM 34.4180 -118.9190 147° Southeast 369 425 19,000 -1,074 Descending FlightAware ADS-B
Wed 07:09:52 PM 34.4180 -118.9220 270° West 356 410 18,100 -1,500 Descending FlightAware ADS-B
Wed 07:10:32 PM 34.3000 -118.8600 157° South 306 352 17,000 -2,533 Descending FlightAware ADS-B
Wed 07:11:22 PM 34.2320 -118.8360 164° South 299 344 14,300 -3,106 Descending FlightAware ADS-B
Wed 07:11:57 PM 34.1860 -118.8180 162° South 295 339 12,600 -2,329 Descending FlightAware ADS-B
Wed 07:12:47 PM 34.1240 -118.7960 164° South 256 295 11,000 -1,733 Descending FlightAware ADS-B
Wed 07:13:27 PM 34.0800 -118.7800 163° South 256 295 10,000 -1,091 Descending FlightAware ADS-B
Wed 07:13:42 PM 34.0650 -118.7710 154° Southeast 247 284 10,000  Level FlightAware ADS-B
Wed 07:13:57 PM 34.0520 -118.7540 133° Southeast 247 284 10,000  Level FlightAware ADS-B
Wed 07:14:37 PM 34.0410 -118.7030 105° East 251 289 10,000 -71 Level FlightAware ADS-B
Wed 07:15:22 PM 34.0360 -118.6600 98° East 250 288 9,900 -600 Descending FlightAware ADS-B
Wed 07:15:47 PM 34.0310 -118.6190 98° East 249 287 9,300 -1,309 Descending FlightAware ADS-B
Wed 07:16:17 PM 34.0260 -118.5830 100° East 248 285 8,700 -1,200 Descending FlightAware ADS-B
Wed 07:16:47 PM 34.0210 -118.5420 98° East 251 289 8,100 -1,418 Descending FlightAware ADS-B
Wed 07:17:12 PM 34.0160 -118.5030 99° East 255 293 7,400 -1,200 Descending FlightAware ADS-B
Wed 07:17:42 PM 34.0110 -118.4590 98° East 254 292 7,000 -400 Descending FlightAware ADS-B
Wed 07:18:12 PM 34.0140 -118.4210 85° East 255 293 7,000 -436 Level FlightAware ADS-B
Wed 07:18:37 PM 34.0180 -118.3840 83° East 256 295 6,600 -982 Descending FlightAware ADS-B
Wed 07:19:07 PM 34.0220 -118.3410 84° East 252 290 6,100 -1,091 Descending FlightAware ADS-B
Wed 07:19:32 PM 34.0250 -118.3090 84° East 249 287 5,600 -1,200 Descending FlightAware ADS-B
Wed 07:19:57 PM 34.0290 -118.2750 82° East 248 285 5,100 -1,418 Descending FlightAware ADS-B
Wed 07:20:27 PM 34.0350 -118.2180 83° East 224 258 4,300 -1,300 Descending FlightAware ADS-B
Wed 07:20:57 PM 34.0380 -118.1820 84° East 205 236 3,800 -800 Descending FlightAware ADS-B
Wed 07:21:27 PM 34.0420 -118.1500 81° East 194 223 3,500 -982 Descending FlightAware ADS-B
Wed 07:21:52 PM 34.0360 -118.1240 106° East 191 220 2,900 -1,371 Descending FlightAware ADS-B
Wed 07:22:02 PM 34.0280 -118.1180 148° Southeast 190 219 2,700 -900 Descending FlightAware ADS-B
Wed 07:22:12 PM 34.0220 -118.1160 165° South 190 219 2,600 -171 Descending FlightAware ADS-B
Wed 07:22:37 PM 34.0010 -118.1280 205° Southwest 192 221 2,600  Level FlightAware ADS-B
Wed 07:23:02 PM 33.9870 -118.1500 232° Southwest 195 224 2,600 -327 Level FlightAware ADS-B
Wed 07:23:32 PM 33.9750 -118.1790 243° Southwest 197 227 2,300 -400 Descending FlightAware ADS-B
Wed 07:24:02 PM 33.9710 -118.2110 261° West 192 221 2,200 -86 Descending FlightAware ADS-B
Wed 07:24:42 PM 33.9670 -118.2520 263° West 174 200 2,200  Level FlightAware ADS-B
Wed 07:25:07 PM 33.9650 -118.2740 264° West 167 192 2,200 -436 Level FlightAware ADS-B
Wed 07:25:37 PM 33.9630 -118.2990 264° West 167 192 1,800 -720 Descending FlightAware ADS-B
Wed 07:26:22 PM 33.9590 -118.3310 261° West 155 178 1,300 -686 Descending FlightAware ADS-B
Wed 07:26:47 PM 33.9580 -118.3480 266° West 146 168 1,000 -764 Descending FlightAware ADS-B
Wed 07:27:17 PM 33.9550 -118.3730 262° West 142 163 600 -764 Descending FlightAware ADS-B
Wed 07:27:42 PM 33.9530 -118.3940 263° West 139 160 300 -400 Descending FlightAware ADS-B
Wed 07:28:17 PM 33.9500 -118.4180 261° West 141 162 200 -171 Descending FlightAware ADS-B
Wed 07:35:00 PM 33.9425 -118.4081 228° Southwest  Level Estimated
Wed 07:36:00 PM 33.9425 -118.4081 228° Southwest  Level Estimated

Login

Don't have an account? Register now (free) for customized features, flight alerts, and more!